PWSweather.com
Personal Weather Stations
Station Observations
OZIERI
Punta Idda, OzieriIT

Punta IddaOzieriIT

Lat: 40.584142, Lon: 9.007657999999992

Elevation: 1483

Station Type: Lacrosse ws2350

www.ozierimeteo.altervista.com

High Low Average
Temperature 51.8°F11.0°C 41.2°F5.1°C 45.7°F7.6°C
Dew Point 42.1°F5.6°C 35.8°F2.1°C 39.5°F4.2°C
Winds 3.8 mph 6.1 kmh 0.2 mph 0.3 kmh 2.0 mph S3.2 kmh S
Wind Gusts 9.6 mph15.4 kmh -- 2.0 mph3.2 kmh
Humidity 87% 67% 79%
Pressure 30.36 in1028.1 mb 30.23 in1023.7 mb -
Precipitation 0.00 in0.0 mm - -
Hour Temp Dew Point Humidity Winds Wind Gusts Pressure Precip Precip Rate Daily Precip Total
12:01 AM 42.6°F5.9°C 38.1°F3.4°C 84% 2.7 mph SE4.3 kmh SE 4.9 mph7.9 kmh 30.36 in1028.1 mb 0.00 in0.0 mm 0.00 in0.0 mm 0.00 in0.0 mm
12:03 AM 42.4°F5.8°C 37.9°F3.3°C 84% 2.9 mph SE4.7 kmh SE 3.8 mph6.1 kmh 30.36 in1028.1 mb 0.00 in0.0 mm 0.00 in0.0 mm 0.00 in0.0 mm
12:05 AM 42.4°F5.8°C 37.9°F3.3°C 84% 2.9 mph ESE4.7 kmh ESE 3.4 mph5.5 kmh 30.36 in1028.1 mb 0.00 in0.0 mm 0.00 in0.0 mm 0.00 in0.0 mm
12:07 AM 42.4°F5.8°C 37.9°F3.3°C 84% 3.1 mph ESE5.0 kmh ESE 4.5 mph7.2 kmh 30.35 in1027.8 mb 0.00 in0.0 mm 0.00 in0.0 mm 0.00 in0.0 mm
12:10 AM 42.4°F5.8°C 37.9°F3.3°C 84% 3.1 mph SE5.0 kmh SE 3.8 mph6.1 kmh 30.35 in1027.8 mb 0.00 in0.0 mm 0.00 in0.0 mm 0.00 in0.0 mm
12:12 AM 42.4°F5.8°C 37.9°F3.3°C 84% 2.9 mph ESE4.7 kmh ESE 3.8 mph6.1 kmh 30.35 in1027.8 mb 0.00 in0.0 mm 0.00 in0.0 mm 0.00 in0.0 mm
12:14 AM 42.4°F5.8°C 37.9°F3.3°C 84% 2.5 mph SE4.0 kmh SE 3.4 mph5.5 kmh 30.35 in1027.8 mb 0.00 in0.0 mm 0.00 in0.0 mm 0.00 in0.0 mm
12:17 AM 42.6°F5.9°C 38.1°F3.4°C 84% 2.0 mph SSE3.2 kmh SSE 2.5 mph4.0 kmh 30.35 in1027.8 mb 0.00 in0.0 mm 0.00 in0.0 mm 0.00 in0.0 mm
12:19 AM 42.6°F5.9°C 38.1°F3.4°C 84% 1.8 mph SE2.9 kmh SE 2.2 mph3.5 kmh 30.35 in1027.8 mb 0.00 in0.0 mm 0.00 in0.0 mm 0.00 in0.0 mm
12:21 AM 42.6°F5.9°C 38.1°F3.4°C 84% 1.6 mph SE2.6 kmh SE 2.0 mph3.2 kmh 30.35 in1027.8 mb 0.00 in0.0 mm 0.00 in0.0 mm 0.00 in0.0 mm
12:23 AM 42.6°F5.9°C 38.5°F3.6°C 85% 1.3 mph SE2.1 kmh SE 2.5 mph4.0 kmh 30.35 in1027.8 mb 0.00 in0.0 mm 0.00 in0.0 mm 0.00 in0.0 mm
12:25 AM 42.6°F5.9°C 38.5°F3.6°C 85% 2.0 mph SSE3.2 kmh SSE 2.9 mph4.7 kmh 30.35 in1027.8 mb 0.00 in0.0 mm 0.00 in0.0 mm 0.00 in0.0 mm
12:28 AM 42.6°F5.9°C 38.5°F3.6°C 85% 2.0 mph ESE3.2 kmh ESE 2.9 mph4.7 kmh 30.35 in1027.8 mb 0.00 in0.0 mm 0.00 in0.0 mm 0.00 in0.0 mm
12:30 AM 42.6°F5.9°C 38.5°F3.6°C 85% 2.0 mph SE3.2 kmh SE 2.9 mph4.7 kmh 30.35 in1027.8 mb 0.00 in0.0 mm 0.00 in0.0 mm 0.00 in0.0 mm
12:32 AM 42.6°F5.9°C 38.5°F3.6°C 85% 2.5 mph SE4.0 kmh SE 3.6 mph5.8 kmh 30.35 in1027.8 mb 0.00 in0.0 mm 0.00 in0.0 mm 0.00 in0.0 mm
12:34 AM 42.4°F5.8°C 38.3°F3.5°C 85% 2.5 mph SE4.0 kmh SE 3.6 mph5.8 kmh 30.35 in1027.8 mb 0.00 in0.0 mm 0.00 in0.0 mm 0.00 in0.0 mm
12:36 AM 42.1°F5.6°C 37.9°F3.3°C 85% 2.7 mph ESE4.3 kmh ESE 4.0 mph6.4 kmh 30.35 in1027.8 mb 0.00 in0.0 mm 0.00 in0.0 mm 0.00 in0.0 mm
12:39 AM 42.1°F5.6°C 37.9°F3.3°C 85% 2.9 mph ESE4.7 kmh ESE 3.8 mph6.1 kmh 30.35 in1027.8 mb 0.00 in0.0 mm 0.00 in0.0 mm 0.00 in0.0 mm
12:41 AM 42.1°F5.6°C 37.9°F3.3°C 85% 2.5 mph SE4.0 kmh SE 2.7 mph4.3 kmh 30.35 in1027.8 mb 0.00 in0.0 mm 0.00 in0.0 mm 0.00 in0.0 mm
12:43 AM 42.1°F5.6°C 37.9°F3.3°C 85% 2.0 mph SE3.2 kmh SE 2.2 mph3.5 kmh 30.35 in1027.8 mb 0.00 in0.0 mm 0.00 in0.0 mm 0.00 in0.0 mm
12:45 AM 42.1°F5.6°C 37.9°F3.3°C 85% 1.8 mph SE2.9 kmh SE 2.7 mph4.3 kmh 30.35 in1027.8 mb 0.00 in0.0 mm 0.00 in0.0 mm 0.00 in0.0 mm
12:47 AM 42.1°F5.6°C 37.9°F3.3°C 85% 2.2 mph SE3.5 kmh SE 2.9 mph4.7 kmh 30.35 in1027.8 mb 0.00 in0.0 mm 0.00 in0.0 mm 0.00 in0.0 mm
12:50 AM 42.4°F5.8°C 38.5°F3.6°C 86% 2.7 mph SE4.3 kmh SE 3.8 mph6.1 kmh 30.34 in1027.4 mb 0.00 in0.0 mm 0.00 in0.0 mm 0.00 in0.0 mm
12:52 AM 42.6°F5.9°C 38.7°F3.7°C 86% 2.5 mph SE4.0 kmh SE 2.7 mph4.3 kmh 30.34 in1027.4 mb 0.00 in0.0 mm 0.00 in0.0 mm 0.00 in0.0 mm
12:54 AM 42.6°F5.9°C 38.7°F3.7°C 86% 2.5 mph SSE4.0 kmh SSE 3.6 mph5.8 kmh 30.34 in1027.4 mb 0.00 in0.0 mm 0.00 in0.0 mm 0.00 in0.0 mm
12:56 AM 42.4°F5.8°C 38.5°F3.6°C 86% 2.2 mph SE3.5 kmh SE 2.2 mph3.5 kmh 30.34 in1027.4 mb 0.00 in0.0 mm 0.00 in0.0 mm 0.00 in0.0 mm
12:59 AM 42.4°F5.8°C 38.5°F3.6°C 86% 2.0 mph SSE3.2 kmh SSE 3.1 mph5.0 kmh 30.34 in1027.4 mb 0.00 in0.0 mm 0.00 in0.0 mm 0.00 in0.0 mm
01:01 AM 42.4°F5.8°C 38.5°F3.6°C 86% 2.5 mph SE4.0 kmh SE 3.8 mph6.1 kmh 30.35 in1027.8 mb 0.00 in0.0 mm 0.00 in0.0 mm 0.00 in0.0 mm
01:03 AM 42.4°F5.8°C 38.5°F3.6°C 86% 2.5 mph SE4.0 kmh SE 3.6 mph5.8 kmh 30.34 in1027.4 mb 0.00 in0.0 mm 0.00 in0.0 mm 0.00 in0.0 mm
01:05 AM 42.4°F5.8°C 38.5°F3.6°C 86% 2.0 mph SSE3.2 kmh SSE 2.5 mph4.0 kmh 30.34 in1027.4 mb 0.00 in0.0 mm 0.00 in0.0 mm 0.00 in0.0 mm
01:07 AM 42.4°F5.8°C 38.5°F3.6°C 86% 2.5 mph SE4.0 kmh SE 3.4 mph5.5 kmh 30.34 in1027.4 mb 0.00 in0.0 mm 0.00 in0.0 mm 0.00 in0.0 mm
01:09 AM 42.4°F5.8°C 38.5°F3.6°C 86% 2.5 mph SE4.0 kmh SE 3.6 mph5.8 kmh 30.34 in1027.4 mb 0.00 in0.0 mm 0.00 in0.0 mm 0.00 in0.0 mm
01:11 AM 42.4°F5.8°C 38.5°F3.6°C 86% 1.6 mph SSE2.6 kmh SSE 2.7 mph4.3 kmh 30.34 in1027.4 mb 0.00 in0.0 mm 0.00 in0.0 mm 0.00 in0.0 mm
01:14 AM 42.4°F5.8°C 38.5°F3.6°C 86% 1.1 mph SSE1.8 kmh SSE 1.3 mph2.1 kmh 30.34 in1027.4 mb 0.00 in0.0 mm 0.00 in0.0 mm 0.00 in0.0 mm
01:16 AM 42.4°F5.8°C 38.5°F3.6°C 86% 1.3 mph SSE2.1 kmh SSE 2.5 mph4.0 kmh 30.34 in1027.4 mb 0.00 in0.0 mm 0.00 in0.0 mm 0.00 in0.0 mm
01:18 AM 42.6°F5.9°C 38.7°F3.7°C 86% 1.1 mph SE1.8 kmh SE 1.6 mph2.6 kmh 30.34 in1027.4 mb 0.00 in0.0 mm 0.00 in0.0 mm 0.00 in0.0 mm
01:20 AM 42.6°F5.9°C 38.7°F3.7°C 86% 1.1 mph ESE1.8 kmh ESE 2.2 mph3.5 kmh 30.34 in1027.4 mb 0.00 in0.0 mm 0.00 in0.0 mm 0.00 in0.0 mm
01:22 AM 42.6°F5.9°C 38.7°F3.7°C 86% 1.6 mph SE2.6 kmh SE 2.9 mph4.7 kmh 30.34 in1027.4 mb 0.00 in0.0 mm 0.00 in0.0 mm 0.00 in0.0 mm
01:25 AM 42.6°F5.9°C 38.7°F3.7°C 86% 1.6 mph SE2.6 kmh SE 2.0 mph3.2 kmh 30.34 in1027.4 mb 0.00 in0.0 mm 0.00 in0.0 mm 0.00 in0.0 mm
01:27 AM 42.6°F5.9°C 38.7°F3.7°C 86% 1.6 mph SSE2.6 kmh SSE 2.0 mph3.2 kmh 30.34 in1027.4 mb 0.00 in0.0 mm 0.00 in0.0 mm 0.00 in0.0 mm
01:29 AM 42.6°F5.9°C 39.0°F3.9°C 87% 1.1 mph SSE1.8 kmh SSE 1.3 mph2.1 kmh 30.34 in1027.4 mb 0.00 in0.0 mm 0.00 in0.0 mm 0.00 in0.0 mm
01:31 AM 42.6°F5.9°C 39.0°F3.9°C 87% 1.3 mph SE2.1 kmh SE 2.0 mph3.2 kmh 30.34 in1027.4 mb 0.00 in0.0 mm 0.00 in0.0 mm 0.00 in0.0 mm
01:33 AM 42.6°F5.9°C 39.0°F3.9°C 87% 1.1 mph SSE1.8 kmh SSE 1.6 mph2.6 kmh 30.34 in1027.4 mb 0.00 in0.0 mm 0.00 in0.0 mm 0.00 in0.0 mm
01:36 AM 42.6°F5.9°C 39.0°F3.9°C 87% 1.1 mph SE1.8 kmh SE 1.6 mph2.6 kmh 30.34 in1027.4 mb 0.00 in0.0 mm 0.00 in0.0 mm 0.00 in0.0 mm
01:38 AM 42.8°F6.0°C 39.2°F4.0°C 87% 1.6 mph SE2.6 kmh SE 2.7 mph4.3 kmh 30.34 in1027.4 mb 0.00 in0.0 mm 0.00 in0.0 mm 0.00 in0.0 mm
01:40 AM 43.0°F6.1°C 39.4°F4.1°C 87% 1.8 mph SE2.9 kmh SE 3.6 mph5.8 kmh 30.34 in1027.4 mb 0.00 in0.0 mm 0.00 in0.0 mm 0.00 in0.0 mm
01:42 AM 42.6°F5.9°C 38.7°F3.7°C 86% 2.5 mph SE4.0 kmh SE 3.8 mph6.1 kmh 30.34 in1027.4 mb 0.00 in0.0 mm 0.00 in0.0 mm 0.00 in0.0 mm
01:45 AM 42.6°F5.9°C 39.0°F3.9°C 87% 2.9 mph SE4.7 kmh SE 3.8 mph6.1 kmh 30.34 in1027.4 mb 0.00 in0.0 mm 0.00 in0.0 mm 0.00 in0.0 mm
01:47 AM 42.6°F5.9°C 39.0°F3.9°C 87% 2.5 mph SE4.0 kmh SE 2.5 mph4.0 kmh 30.33 in1027.1 mb 0.00 in0.0 mm 0.00 in0.0 mm 0.00 in0.0 mm
01:49 AM 42.4°F5.8°C 38.8°F3.8°C 87% 2.0 mph SE3.2 kmh SE 1.8 mph2.9 kmh 30.33 in1027.1 mb 0.00 in0.0 mm 0.00 in0.0 mm 0.00 in0.0 mm
01:51 AM 42.4°F5.8°C 38.8°F3.8°C 87% 1.8 mph SE2.9 kmh SE 1.6 mph2.6 kmh 30.33 in1027.1 mb 0.00 in0.0 mm 0.00 in0.0 mm 0.00 in0.0 mm
01:54 AM 42.4°F5.8°C 38.8°F3.8°C 87% 1.8 mph SSE2.9 kmh SSE 2.7 mph4.3 kmh 30.33 in1027.1 mb 0.00 in0.0 mm 0.00 in0.0 mm 0.00 in0.0 mm
01:56 AM 42.4°F5.8°C 38.8°F3.8°C 87% 1.8 mph SE2.9 kmh SE 2.0 mph3.2 kmh 30.34 in1027.4 mb 0.00 in0.0 mm 0.00 in0.0 mm 0.00 in0.0 mm
01:58 AM 42.6°F5.9°C 39.0°F3.9°C 87% 1.1 mph SSE1.8 kmh SSE 1.6 mph2.6 kmh 30.34 in1027.4 mb 0.00 in0.0 mm 0.00 in0.0 mm 0.00 in0.0 mm
02:07 AM 42.6°F5.9°C 39.0°F3.9°C 87% 1.1 mph SE1.8 kmh SE -- 30.33 in1027.1 mb 0.00 in0.0 mm 0.00 in0.0 mm 0.00 in0.0 mm
02:09 AM 42.6°F5.9°C 39.0°F3.9°C 87% 0.9 mph SSE1.4 kmh SSE 2.7 mph4.3 kmh 30.33 in1027.1 mb 0.00 in0.0 mm 0.00 in0.0 mm 0.00 in0.0 mm
02:11 AM 42.8°F6.0°C 39.2°F4.0°C 87% 1.3 mph SE2.1 kmh SE 2.0 mph3.2 kmh 30.34 in1027.4 mb 0.00 in0.0 mm 0.00 in0.0 mm 0.00 in0.0 mm
02:13 AM 42.8°F6.0°C 39.2°F4.0°C 87% 2.0 mph SE3.2 kmh SE 3.6 mph5.8 kmh 30.34 in1027.4 mb 0.00 in0.0 mm 0.00 in0.0 mm 0.00 in0.0 mm
02:16 AM 43.0°F6.1°C 39.4°F4.1°C 87% 2.2 mph SE3.5 kmh SE 3.1 mph5.0 kmh 30.34 in1027.4 mb 0.00 in0.0 mm 0.00 in0.0 mm 0.00 in0.0 mm
02:18 AM 43.0°F6.1°C 39.4°F4.1°C 87% 2.5 mph SE4.0 kmh SE 3.8 mph6.1 kmh 30.34 in1027.4 mb 0.00 in0.0 mm 0.00 in0.0 mm 0.00 in0.0 mm
02:20 AM 42.6°F5.9°C 39.0°F3.9°C 87% 2.5 mph SE4.0 kmh SE 3.8 mph6.1 kmh 30.34 in1027.4 mb 0.00 in0.0 mm 0.00 in0.0 mm 0.00 in0.0 mm
02:22 AM 42.4°F5.8°C 38.8°F3.8°C 87% 2.0 mph SSE3.2 kmh SSE 2.2 mph3.5 kmh 30.34 in1027.4 mb 0.00 in0.0 mm 0.00 in0.0 mm 0.00 in0.0 mm
02:24 AM 42.4°F5.8°C 38.8°F3.8°C 87% 1.8 mph SSE2.9 kmh SSE 2.2 mph3.5 kmh 30.34 in1027.4 mb 0.00 in0.0 mm 0.00 in0.0 mm 0.00 in0.0 mm
02:27 AM 42.8°F6.0°C 39.2°F4.0°C 87% 1.6 mph SSE2.6 kmh SSE 2.0 mph3.2 kmh 30.34 in1027.4 mb 0.00 in0.0 mm 0.00 in0.0 mm 0.00 in0.0 mm
02:29 AM 43.0°F6.1°C 39.4°F4.1°C 87% 1.3 mph SSE2.1 kmh SSE 1.3 mph2.1 kmh 30.34 in1027.4 mb 0.00 in0.0 mm 0.00 in0.0 mm 0.00 in0.0 mm
02:31 AM 43.2°F6.2°C 39.6°F4.2°C 87% 1.3 mph SSE2.1 kmh SSE 2.0 mph3.2 kmh 30.34 in1027.4 mb 0.00 in0.0 mm 0.00 in0.0 mm 0.00 in0.0 mm
02:33 AM 43.5°F6.4°C 39.9°F4.4°C 87% 1.1 mph SSE1.8 kmh SSE 0.9 mph1.4 kmh 30.34 in1027.4 mb 0.00 in0.0 mm 0.00 in0.0 mm 0.00 in0.0 mm
02:36 AM 43.5°F6.4°C 39.9°F4.4°C 87% 1.3 mph SSE2.1 kmh SSE 2.0 mph3.2 kmh 30.34 in1027.4 mb 0.00 in0.0 mm 0.00 in0.0 mm 0.00 in0.0 mm
02:38 AM 43.5°F6.4°C 39.9°F4.4°C 87% 1.6 mph SE2.6 kmh SE 2.0 mph3.2 kmh 30.33 in1027.1 mb 0.00 in0.0 mm 0.00 in0.0 mm 0.00 in0.0 mm
02:40 AM 43.2°F6.2°C 39.2°F4.0°C 86% 1.8 mph SSE2.9 kmh SSE 2.2 mph3.5 kmh 30.34 in1027.4 mb 0.00 in0.0 mm 0.00 in0.0 mm 0.00 in0.0 mm
02:42 AM 43.2°F6.2°C 39.2°F4.0°C 86% 2.0 mph SE3.2 kmh SE 2.2 mph3.5 kmh 30.34 in1027.4 mb 0.00 in0.0 mm 0.00 in0.0 mm 0.00 in0.0 mm
02:44 AM 43.0°F6.1°C 39.0°F3.9°C 86% 2.2 mph SE3.5 kmh SE 2.5 mph4.0 kmh 30.34 in1027.4 mb 0.00 in0.0 mm 0.00 in0.0 mm 0.00 in0.0 mm
02:47 AM 42.6°F5.9°C 38.7°F3.7°C 86% 2.2 mph SSE3.5 kmh SSE 2.5 mph4.0 kmh 30.34 in1027.4 mb 0.00 in0.0 mm 0.00 in0.0 mm 0.00 in0.0 mm
02:49 AM 42.6°F5.9°C 39.0°F3.9°C 87% 2.0 mph SSE3.2 kmh SSE 2.2 mph3.5 kmh 30.34 in1027.4 mb 0.00 in0.0 mm 0.00 in0.0 mm 0.00 in0.0 mm
02:51 AM 43.0°F6.1°C 39.4°F4.1°C 87% 2.0 mph SE3.2 kmh SE 2.5 mph4.0 kmh 30.33 in1027.1 mb 0.00 in0.0 mm 0.00 in0.0 mm 0.00 in0.0 mm
02:53 AM 43.2°F6.2°C 39.6°F4.2°C 87% 1.3 mph SSE2.1 kmh SSE 1.8 mph2.9 kmh 30.33 in1027.1 mb 0.00 in0.0 mm 0.00 in0.0 mm 0.00 in0.0 mm
02:55 AM 43.2°F6.2°C 39.6°F4.2°C 87% 0.9 mph SSE1.4 kmh SSE 1.3 mph2.1 kmh 30.33 in1027.1 mb 0.00 in0.0 mm 0.00 in0.0 mm 0.00 in0.0 mm
02:58 AM 43.3°F6.3°C 39.7°F4.3°C 87% 0.9 mph SSE1.4 kmh SSE 1.6 mph2.6 kmh 30.33 in1027.1 mb 0.00 in0.0 mm 0.00 in0.0 mm 0.00 in0.0 mm
03:00 AM 43.5°F6.4°C 39.9°F4.4°C 87% 1.1 mph SSE1.8 kmh SSE 1.6 mph2.6 kmh 30.33 in1027.1 mb 0.00 in0.0 mm 0.00 in0.0 mm 0.00 in0.0 mm
03:02 AM 43.5°F6.4°C 39.6°F4.2°C 86% 0.7 mph SSE1.1 kmh SSE 0.9 mph1.4 kmh 30.33 in1027.1 mb 0.00 in0.0 mm 0.00 in0.0 mm 0.00 in0.0 mm
03:04 AM 43.5°F6.4°C 39.6°F4.2°C 86% 0.9 mph SE1.4 kmh SE 1.3 mph2.1 kmh 30.34 in1027.4 mb 0.00 in0.0 mm 0.00 in0.0 mm 0.00 in0.0 mm
03:06 AM 43.7°F6.5°C 39.7°F4.3°C 86% 1.1 mph SE1.8 kmh SE 1.8 mph2.9 kmh 30.33 in1027.1 mb 0.00 in0.0 mm 0.00 in0.0 mm 0.00 in0.0 mm
03:08 AM 43.5°F6.4°C 39.6°F4.2°C 86% 1.3 mph SSE2.1 kmh SSE 2.2 mph3.5 kmh 30.33 in1027.1 mb 0.00 in0.0 mm 0.00 in0.0 mm 0.00 in0.0 mm
03:11 AM 43.5°F6.4°C 39.6°F4.2°C 86% 1.6 mph SE2.6 kmh SE 2.0 mph3.2 kmh 30.34 in1027.4 mb 0.00 in0.0 mm 0.00 in0.0 mm 0.00 in0.0 mm
03:13 AM 43.5°F6.4°C 39.6°F4.2°C 86% 1.6 mph SSE2.6 kmh SSE 2.0 mph3.2 kmh 30.33 in1027.1 mb 0.00 in0.0 mm 0.00 in0.0 mm 0.00 in0.0 mm
03:15 AM 43.3°F6.3°C 39.4°F4.1°C 86% 1.6 mph SE2.6 kmh SE 2.2 mph3.5 kmh 30.33 in1027.1 mb 0.00 in0.0 mm 0.00 in0.0 mm 0.00 in0.0 mm
03:18 AM 43.3°F6.3°C 39.4°F4.1°C 86% 1.6 mph SE2.6 kmh SE 2.0 mph3.2 kmh 30.33 in1027.1 mb 0.00 in0.0 mm 0.00 in0.0 mm 0.00 in0.0 mm
03:20 AM 43.3°F6.3°C 39.4°F4.1°C 86% 1.1 mph SE1.8 kmh SE 1.6 mph2.6 kmh 30.33 in1027.1 mb 0.00 in0.0 mm 0.00 in0.0 mm 0.00 in0.0 mm
03:22 AM 43.5°F6.4°C 39.6°F4.2°C 86% 0.9 mph SE1.4 kmh SE 1.6 mph2.6 kmh 30.33 in1027.1 mb 0.00 in0.0 mm 0.00 in0.0 mm 0.00 in0.0 mm
03:24 AM 43.5°F6.4°C 39.6°F4.2°C 86% 1.1 mph SE1.8 kmh SE 2.2 mph3.5 kmh 30.33 in1027.1 mb 0.00 in0.0 mm 0.00 in0.0 mm 0.00 in0.0 mm
03:27 AM 43.9°F6.6°C 39.9°F4.4°C 86% 1.6 mph SE2.6 kmh SE 2.5 mph4.0 kmh 30.33 in1027.1 mb 0.00 in0.0 mm 0.00 in0.0 mm 0.00 in0.0 mm
03:29 AM 44.1°F6.7°C 40.1°F4.5°C 86% 2.0 mph SE3.2 kmh SE 4.0 mph6.4 kmh 30.33 in1027.1 mb 0.00 in0.0 mm 0.00 in0.0 mm 0.00 in0.0 mm
03:31 AM 44.2°F6.8°C 40.3°F4.6°C 86% 1.6 mph SE2.6 kmh SE 1.6 mph2.6 kmh 30.33 in1027.1 mb 0.00 in0.0 mm 0.00 in0.0 mm 0.00 in0.0 mm
03:33 AM 44.2°F6.8°C 40.3°F4.6°C 86% 1.3 mph SE2.1 kmh SE 1.8 mph2.9 kmh 30.32 in1026.8 mb 0.00 in0.0 mm 0.00 in0.0 mm 0.00 in0.0 mm
03:35 AM 44.2°F6.8°C 40.3°F4.6°C 86% 1.3 mph SE2.1 kmh SE 2.5 mph4.0 kmh 30.33 in1027.1 mb 0.00 in0.0 mm 0.00 in0.0 mm 0.00 in0.0 mm
03:37 AM 44.2°F6.8°C 40.3°F4.6°C 86% 0.9 mph SE1.4 kmh SE 1.6 mph2.6 kmh 30.32 in1026.8 mb 0.00 in0.0 mm 0.00 in0.0 mm 0.00 in0.0 mm
03:39 AM 44.2°F6.8°C 40.3°F4.6°C 86% 1.1 mph SSE1.8 kmh SSE 1.8 mph2.9 kmh 30.32 in1026.8 mb 0.00 in0.0 mm 0.00 in0.0 mm 0.00 in0.0 mm
03:41 AM 44.4°F6.9°C 40.5°F4.7°C 86% 1.1 mph SE1.8 kmh SE 1.6 mph2.6 kmh 30.32 in1026.8 mb 0.00 in0.0 mm 0.00 in0.0 mm 0.00 in0.0 mm
03:43 AM 44.4°F6.9°C 40.5°F4.7°C 86% 0.9 mph SE1.4 kmh SE 0.9 mph1.4 kmh 30.32 in1026.8 mb 0.00 in0.0 mm 0.00 in0.0 mm 0.00 in0.0 mm
03:45 AM 44.4°F6.9°C 40.5°F4.7°C 86% 0.7 mph SSE1.1 kmh SSE 0.9 mph1.4 kmh 30.32 in1026.8 mb 0.00 in0.0 mm 0.00 in0.0 mm 0.00 in0.0 mm
03:47 AM 44.6°F7.0°C 40.6°F4.8°C 86% 0.4 mph SSE0.6 kmh SSE -- 30.32 in1026.8 mb 0.00 in0.0 mm 0.00 in0.0 mm 0.00 in0.0 mm
03:49 AM 44.6°F7.0°C 40.6°F4.8°C 86% 0.2 mph SE0.3 kmh SE -- 30.32 in1026.8 mb 0.00 in0.0 mm 0.00 in0.0 mm 0.00 in0.0 mm
03:52 AM 44.8°F7.1°C 40.8°F4.9°C 86% 0.2 mph SE0.3 kmh SE 0.9 mph1.4 kmh 30.32 in1026.8 mb 0.00 in0.0 mm 0.00 in0.0 mm 0.00 in0.0 mm
03:54 AM 45.0°F7.2°C 41.0°F5.0°C 86% 0.2 mph SE0.3 kmh SE 0.9 mph1.4 kmh 30.32 in1026.8 mb 0.00 in0.0 mm 0.00 in0.0 mm 0.00 in0.0 mm
03:56 AM 45.0°F7.2°C 41.0°F5.0°C 86% 0.2 mph ESE0.3 kmh ESE -- 30.32 in1026.8 mb 0.00 in0.0 mm 0.00 in0.0 mm 0.00 in0.0 mm
03:58 AM 45.0°F7.2°C 40.6°F4.8°C 85% 0.4 mph SE0.6 kmh SE 1.8 mph2.9 kmh 30.32 in1026.8 mb 0.00 in0.0 mm 0.00 in0.0 mm 0.00 in0.0 mm
04:01 AM 45.0°F7.2°C 40.6°F4.8°C 85% 0.7 mph SE1.1 kmh SE 1.6 mph2.6 kmh 30.32 in1026.8 mb 0.00 in0.0 mm 0.00 in0.0 mm 0.00 in0.0 mm
04:03 AM 45.0°F7.2°C 40.6°F4.8°C 85% 0.9 mph SSE1.4 kmh SSE 1.6 mph2.6 kmh 30.32 in1026.8 mb 0.00 in0.0 mm 0.00 in0.0 mm 0.00 in0.0 mm
04:05 AM 45.0°F7.2°C 40.6°F4.8°C 85% 0.9 mph SE1.4 kmh SE 1.6 mph2.6 kmh 30.32 in1026.8 mb 0.00 in0.0 mm 0.00 in0.0 mm 0.00 in0.0 mm
04:07 AM 45.0°F7.2°C 40.6°F4.8°C 85% 1.1 mph SE1.8 kmh SE 1.6 mph2.6 kmh 30.32 in1026.8 mb 0.00 in0.0 mm 0.00 in0.0 mm 0.00 in0.0 mm
04:09 AM 45.0°F7.2°C 40.6°F4.8°C 85% 0.9 mph SE1.4 kmh SE 2.5 mph4.0 kmh 30.32 in1026.8 mb 0.00 in0.0 mm 0.00 in0.0 mm 0.00 in0.0 mm
04:11 AM 45.0°F7.2°C 40.6°F4.8°C 85% 1.3 mph SE2.1 kmh SE 2.2 mph3.5 kmh 30.32 in1026.8 mb 0.00 in0.0 mm 0.00 in0.0 mm 0.00 in0.0 mm
04:14 AM 44.8°F7.1°C 40.5°F4.7°C 85% 1.6 mph SE2.6 kmh SE 2.2 mph3.5 kmh 30.32 in1026.8 mb 0.00 in0.0 mm 0.00 in0.0 mm 0.00 in0.0 mm
04:16 AM 44.8°F7.1°C 40.5°F4.7°C 85% 1.3 mph SE2.1 kmh SE 2.0 mph3.2 kmh 30.31 in1026.4 mb 0.00 in0.0 mm 0.00 in0.0 mm 0.00 in0.0 mm
04:18 AM 45.0°F7.2°C 40.6°F4.8°C 85% 1.3 mph SE2.1 kmh SE 1.6 mph2.6 kmh 30.32 in1026.8 mb 0.00 in0.0 mm 0.00 in0.0 mm 0.00 in0.0 mm
04:20 AM 45.0°F7.2°C 40.6°F4.8°C 85% 1.3 mph SE2.1 kmh SE 1.6 mph2.6 kmh 30.32 in1026.8 mb 0.00 in0.0 mm 0.00 in0.0 mm 0.00 in0.0 mm
04:22 AM 45.0°F7.2°C 40.6°F4.8°C 85% 1.3 mph SE2.1 kmh SE 2.0 mph3.2 kmh 30.31 in1026.4 mb 0.00 in0.0 mm 0.00 in0.0 mm 0.00 in0.0 mm
04:25 AM 45.1°F7.3°C 40.8°F4.9°C 85% 1.3 mph ESE2.1 kmh ESE 1.6 mph2.6 kmh 30.31 in1026.4 mb 0.00 in0.0 mm 0.00 in0.0 mm 0.00 in0.0 mm
04:27 AM 45.0°F7.2°C 40.6°F4.8°C 85% 1.6 mph ESE2.6 kmh ESE 2.2 mph3.5 kmh 30.31 in1026.4 mb 0.00 in0.0 mm 0.00 in0.0 mm 0.00 in0.0 mm
04:29 AM 45.0°F7.2°C 40.6°F4.8°C 85% 1.8 mph ESE2.9 kmh ESE 2.2 mph3.5 kmh 30.31 in1026.4 mb 0.00 in0.0 mm 0.00 in0.0 mm 0.00 in0.0 mm
04:31 AM 44.8°F7.1°C 40.5°F4.7°C 85% 2.0 mph ESE3.2 kmh ESE 2.7 mph4.3 kmh 30.32 in1026.8 mb 0.00 in0.0 mm 0.00 in0.0 mm 0.00 in0.0 mm
04:33 AM 44.6°F7.0°C 40.5°F4.7°C 85% 1.8 mph ESE2.9 kmh ESE 2.0 mph3.2 kmh 30.31 in1026.4 mb 0.00 in0.0 mm 0.00 in0.0 mm 0.00 in0.0 mm
04:36 AM 44.8°F7.1°C 40.5°F4.7°C 85% 1.8 mph SE2.9 kmh SE 2.0 mph3.2 kmh 30.32 in1026.8 mb 0.00 in0.0 mm 0.00 in0.0 mm 0.00 in0.0 mm
04:38 AM 44.6°F7.0°C 40.5°F4.7°C 85% 1.8 mph ESE2.9 kmh ESE 2.0 mph3.2 kmh 30.31 in1026.4 mb 0.00 in0.0 mm 0.00 in0.0 mm 0.00 in0.0 mm
04:40 AM 44.6°F7.0°C 40.5°F4.7°C 85% 1.6 mph SE2.6 kmh SE 2.2 mph3.5 kmh 30.31 in1026.4 mb 0.00 in0.0 mm 0.00 in0.0 mm 0.00 in0.0 mm
04:42 AM 44.8°F7.1°C 40.5°F4.7°C 85% 1.3 mph SE2.1 kmh SE 1.3 mph2.1 kmh 30.31 in1026.4 mb 0.00 in0.0 mm 0.00 in0.0 mm 0.00 in0.0 mm
04:45 AM 45.0°F7.2°C 40.6°F4.8°C 85% 1.6 mph SSE2.6 kmh SSE 2.0 mph3.2 kmh 30.31 in1026.4 mb 0.00 in0.0 mm 0.00 in0.0 mm 0.00 in0.0 mm
04:47 AM 45.0°F7.2°C 40.6°F4.8°C 85% 1.6 mph SE2.6 kmh SE 1.8 mph2.9 kmh 30.31 in1026.4 mb 0.00 in0.0 mm 0.00 in0.0 mm 0.00 in0.0 mm
04:49 AM 45.0°F7.2°C 40.5°F4.7°C 84% 1.6 mph SE2.6 kmh SE 2.0 mph3.2 kmh 30.31 in1026.4 mb 0.00 in0.0 mm 0.00 in0.0 mm 0.00 in0.0 mm
04:51 AM 45.1°F7.3°C 40.6°F4.8°C 84% 1.6 mph ESE2.6 kmh ESE 2.0 mph3.2 kmh 30.31 in1026.4 mb 0.00 in0.0 mm 0.00 in0.0 mm 0.00 in0.0 mm
04:53 AM 45.1°F7.3°C 40.6°F4.8°C 84% 1.3 mph SE2.1 kmh SE 1.3 mph2.1 kmh 30.31 in1026.4 mb 0.00 in0.0 mm 0.00 in0.0 mm 0.00 in0.0 mm
04:56 AM 45.1°F7.3°C 40.6°F4.8°C 84% 1.3 mph SSE2.1 kmh SSE 2.0 mph3.2 kmh 30.30 in1026.1 mb 0.00 in0.0 mm 0.00 in0.0 mm 0.00 in0.0 mm
04:58 AM 45.0°F7.2°C 40.5°F4.7°C 84% 1.3 mph SE2.1 kmh SE 1.8 mph2.9 kmh 30.30 in1026.1 mb 0.00 in0.0 mm 0.00 in0.0 mm 0.00 in0.0 mm
05:00 AM 45.0°F7.2°C 40.5°F4.7°C 84% 1.3 mph SE2.1 kmh SE 1.8 mph2.9 kmh 30.31 in1026.4 mb 0.00 in0.0 mm 0.00 in0.0 mm 0.00 in0.0 mm
05:02 AM 45.0°F7.2°C 40.5°F4.7°C 84% 1.3 mph SE2.1 kmh SE 1.8 mph2.9 kmh 30.31 in1026.4 mb 0.00 in0.0 mm 0.00 in0.0 mm 0.00 in0.0 mm
05:04 AM 45.0°F7.2°C 40.5°F4.7°C 84% 0.7 mph SE1.1 kmh SE 0.9 mph1.4 kmh 30.31 in1026.4 mb 0.00 in0.0 mm 0.00 in0.0 mm 0.00 in0.0 mm
05:07 AM 44.8°F7.1°C 40.3°F4.6°C 84% 0.4 mph SE0.6 kmh SE -- 30.30 in1026.1 mb 0.00 in0.0 mm 0.00 in0.0 mm 0.00 in0.0 mm
05:09 AM 44.6°F7.0°C 40.1°F4.5°C 84% 0.2 mph SE0.3 kmh SE -- 30.30 in1026.1 mb 0.00 in0.0 mm 0.00 in0.0 mm 0.00 in0.0 mm
05:11 AM 44.6°F7.0°C 40.1°F4.5°C 84% 0.2 mph ESE0.3 kmh ESE -- 30.30 in1026.1 mb 0.00 in0.0 mm 0.00 in0.0 mm 0.00 in0.0 mm
05:13 AM 44.6°F7.0°C 40.1°F4.5°C 84% 0.4 mph SE0.6 kmh SE 1.1 mph1.8 kmh 30.31 in1026.4 mb 0.00 in0.0 mm 0.00 in0.0 mm 0.00 in0.0 mm
05:15 AM 44.6°F7.0°C 40.1°F4.5°C 84% 0.2 mph SE0.3 kmh SE -- 30.30 in1026.1 mb 0.00 in0.0 mm 0.00 in0.0 mm 0.00 in0.0 mm
05:17 AM 44.6°F7.0°C 40.1°F4.5°C 84% 0.2 mph SE0.3 kmh SE -- 30.30 in1026.1 mb 0.00 in0.0 mm 0.00 in0.0 mm 0.00 in0.0 mm
05:19 AM 44.6°F7.0°C 40.1°F4.5°C 84% 0.2 mph SE0.3 kmh SE -- 30.30 in1026.1 mb 0.00 in0.0 mm 0.00 in0.0 mm 0.00 in0.0 mm
05:22 AM 44.4°F6.9°C 39.9°F4.4°C 84% 0.2 mph SE0.3 kmh SE -- 30.30 in1026.1 mb 0.00 in0.0 mm 0.00 in0.0 mm 0.00 in0.0 mm
05:24 AM 44.4°F6.9°C 39.9°F4.4°C 84% 0.2 mph SE0.3 kmh SE -- 30.30 in1026.1 mb 0.00 in0.0 mm 0.00 in0.0 mm 0.00 in0.0 mm
05:26 AM 44.4°F6.9°C 39.9°F4.4°C 84% 0.2 mph ESE0.3 kmh ESE 0.9 mph1.4 kmh 30.30 in1026.1 mb 0.00 in0.0 mm 0.00 in0.0 mm 0.00 in0.0 mm
05:28 AM 44.4°F6.9°C 39.9°F4.4°C 84% 0.2 mph ESE0.3 kmh ESE -- 30.30 in1026.1 mb 0.00 in0.0 mm 0.00 in0.0 mm 0.00 in0.0 mm
05:30 AM 44.4°F6.9°C 39.9°F4.4°C 84% 0.2 mph SE0.3 kmh SE -- 30.30 in1026.1 mb 0.00 in0.0 mm 0.00 in0.0 mm 0.00 in0.0 mm
05:32 AM 44.4°F6.9°C 39.9°F4.4°C 84% 0.4 mph SE0.6 kmh SE 0.9 mph1.4 kmh 30.30 in1026.1 mb 0.00 in0.0 mm 0.00 in0.0 mm 0.00 in0.0 mm
05:34 AM 44.4°F6.9°C 39.9°F4.4°C 84% 0.2 mph SE0.3 kmh SE -- 30.30 in1026.1 mb 0.00 in0.0 mm 0.00 in0.0 mm 0.00 in0.0 mm
05:37 AM 44.4°F6.9°C 39.9°F4.4°C 84% 0.2 mph SE0.3 kmh SE 1.1 mph1.8 kmh 30.31 in1026.4 mb 0.00 in0.0 mm 0.00 in0.0 mm 0.00 in0.0 mm
05:39 AM 44.4°F6.9°C 39.9°F4.4°C 84% 0.2 mph SE0.3 kmh SE -- 30.30 in1026.1 mb 0.00 in0.0 mm 0.00 in0.0 mm 0.00 in0.0 mm
05:41 AM 44.4°F6.9°C 39.6°F4.2°C 83% 0.2 mph SE0.3 kmh SE -- 30.30 in1026.1 mb 0.00 in0.0 mm 0.00 in0.0 mm 0.00 in0.0 mm
05:43 AM 44.2°F6.8°C 39.4°F4.1°C 83% 0.2 mph ESE0.3 kmh ESE -- 30.30 in1026.1 mb 0.00 in0.0 mm 0.00 in0.0 mm 0.00 in0.0 mm
05:46 AM 44.2°F6.8°C 39.4°F4.1°C 83% 0.2 mph ESE0.3 kmh ESE -- 30.30 in1026.1 mb 0.00 in0.0 mm 0.00 in0.0 mm 0.00 in0.0 mm
05:48 AM 44.2°F6.8°C 39.4°F4.1°C 83% 0.2 mph SE0.3 kmh SE -- 30.30 in1026.1 mb 0.00 in0.0 mm 0.00 in0.0 mm 0.00 in0.0 mm
05:50 AM 44.2°F6.8°C 39.4°F4.1°C 83% 0.2 mph ESE0.3 kmh ESE -- 30.30 in1026.1 mb 0.00 in0.0 mm 0.00 in0.0 mm 0.00 in0.0 mm
05:52 AM 44.4°F6.9°C 39.6°F4.2°C 83% 0.4 mph SE0.6 kmh SE 1.3 mph2.1 kmh 30.30 in1026.1 mb 0.00 in0.0 mm 0.00 in0.0 mm 0.00 in0.0 mm
05:55 AM 44.4°F6.9°C 39.6°F4.2°C 83% 0.2 mph SE0.3 kmh SE -- 30.30 in1026.1 mb 0.00 in0.0 mm 0.00 in0.0 mm 0.00 in0.0 mm
05:57 AM 44.4°F6.9°C 39.6°F4.2°C 83% 0.2 mph ESE0.3 kmh ESE -- 30.30 in1026.1 mb 0.00 in0.0 mm 0.00 in0.0 mm 0.00 in0.0 mm
05:59 AM 44.2°F6.8°C 39.4°F4.1°C 83% 0.4 mph SE0.6 kmh SE 1.6 mph2.6 kmh 30.30 in1026.1 mb 0.00 in0.0 mm 0.00 in0.0 mm 0.00 in0.0 mm
06:01 AM 44.2°F6.8°C 39.4°F4.1°C 83% 0.2 mph SE0.3 kmh SE -- 30.30 in1026.1 mb 0.00 in0.0 mm 0.00 in0.0 mm 0.00 in0.0 mm
06:03 AM 44.2°F6.8°C 39.4°F4.1°C 83% 0.2 mph SE0.3 kmh SE -- 30.30 in1026.1 mb 0.00 in0.0 mm 0.00 in0.0 mm 0.00 in0.0 mm
06:05 AM 44.1°F6.7°C 39.2°F4.0°C 83% 0.2 mph S0.3 kmh S -- 30.30 in1026.1 mb 0.00 in0.0 mm 0.00 in0.0 mm 0.00 in0.0 mm
06:07 AM 44.1°F6.7°C 39.2°F4.0°C 83% 0.2 mph SSE0.3 kmh SSE -- 30.30 in1026.1 mb 0.00 in0.0 mm 0.00 in0.0 mm 0.00 in0.0 mm
06:10 AM 44.1°F6.7°C 39.2°F4.0°C 83% 0.7 mph ESE1.1 kmh ESE 1.6 mph2.6 kmh 30.30 in1026.1 mb 0.00 in0.0 mm 0.00 in0.0 mm 0.00 in0.0 mm
06:12 AM 44.1°F6.7°C 39.2°F4.0°C 83% 0.7 mph SE1.1 kmh SE 0.9 mph1.4 kmh 30.30 in1026.1 mb 0.00 in0.0 mm 0.00 in0.0 mm 0.00 in0.0 mm
06:14 AM 44.1°F6.7°C 39.2°F4.0°C 83% 0.4 mph SE0.6 kmh SE 1.1 mph1.8 kmh 30.30 in1026.1 mb 0.00 in0.0 mm 0.00 in0.0 mm 0.00 in0.0 mm
06:16 AM 44.1°F6.7°C 39.2°F4.0°C 83% 0.2 mph SE0.3 kmh SE -- 30.30 in1026.1 mb 0.00 in0.0 mm 0.00 in0.0 mm 0.00 in0.0 mm
06:18 AM 43.9°F6.6°C 39.0°F3.9°C 83% 0.9 mph ESE1.4 kmh ESE 1.8 mph2.9 kmh 30.30 in1026.1 mb 0.00 in0.0 mm 0.00 in0.0 mm 0.00 in0.0 mm
06:20 AM 43.9°F6.6°C 39.0°F3.9°C 83% 0.7 mph SE1.1 kmh SE 1.1 mph1.8 kmh 30.30 in1026.1 mb 0.00 in0.0 mm 0.00 in0.0 mm 0.00 in0.0 mm
06:23 AM 43.9°F6.6°C 39.0°F3.9°C 83% 0.9 mph ESE1.4 kmh ESE 1.8 mph2.9 kmh 30.30 in1026.1 mb 0.00 in0.0 mm 0.00 in0.0 mm 0.00 in0.0 mm
06:25 AM 43.9°F6.6°C 39.0°F3.9°C 83% 1.1 mph SE1.8 kmh SE 2.0 mph3.2 kmh 30.30 in1026.1 mb 0.00 in0.0 mm 0.00 in0.0 mm 0.00 in0.0 mm
06:27 AM 43.9°F6.6°C 39.0°F3.9°C 83% 1.1 mph SE1.8 kmh SE 1.6 mph2.6 kmh 30.29 in1025.7 mb 0.00 in0.0 mm 0.00 in0.0 mm 0.00 in0.0 mm
06:30 AM 43.9°F6.6°C 39.0°F3.9°C 83% 1.1 mph SE1.8 kmh SE 1.6 mph2.6 kmh 30.30 in1026.1 mb 0.00 in0.0 mm 0.00 in0.0 mm 0.00 in0.0 mm
06:32 AM 43.9°F6.6°C 39.0°F3.9°C 83% 0.9 mph SSE1.4 kmh SSE 2.0 mph3.2 kmh 30.30 in1026.1 mb 0.00 in0.0 mm 0.00 in0.0 mm 0.00 in0.0 mm
06:34 AM 43.7°F6.5°C 38.8°F3.8°C 83% 1.3 mph SE2.1 kmh SE 2.2 mph3.5 kmh 30.30 in1026.1 mb 0.00 in0.0 mm 0.00 in0.0 mm 0.00 in0.0 mm
06:36 AM 43.7°F6.5°C 38.8°F3.8°C 83% 1.6 mph ESE2.6 kmh ESE 2.0 mph3.2 kmh 30.30 in1026.1 mb 0.00 in0.0 mm 0.00 in0.0 mm 0.00 in0.0 mm
06:39 AM 43.7°F6.5°C 38.8°F3.8°C 83% 1.3 mph SE2.1 kmh SE 1.6 mph2.6 kmh 30.30 in1026.1 mb 0.00 in0.0 mm 0.00 in0.0 mm 0.00 in0.0 mm
06:41 AM 43.7°F6.5°C 38.8°F3.8°C 83% 0.9 mph ESE1.4 kmh ESE 1.8 mph2.9 kmh 30.30 in1026.1 mb 0.00 in0.0 mm 0.00 in0.0 mm 0.00 in0.0 mm
06:43 AM 43.7°F6.5°C 38.8°F3.8°C 83% 0.4 mph SE0.6 kmh SE -- 30.30 in1026.1 mb 0.00 in0.0 mm 0.00 in0.0 mm 0.00 in0.0 mm
06:45 AM 43.7°F6.5°C 38.8°F3.8°C 83% 0.2 mph SE0.3 kmh SE -- 30.30 in1026.1 mb 0.00 in0.0 mm 0.00 in0.0 mm 0.00 in0.0 mm
06:48 AM 43.7°F6.5°C 38.8°F3.8°C 83% 0.2 mph SE0.3 kmh SE -- 30.30 in1026.1 mb 0.00 in0.0 mm 0.00 in0.0 mm 0.00 in0.0 mm
06:50 AM 43.7°F6.5°C 38.8°F3.8°C 83% 0.2 mph ESE0.3 kmh ESE -- 30.30 in1026.1 mb 0.00 in0.0 mm 0.00 in0.0 mm 0.00 in0.0 mm
06:52 AM 43.9°F6.6°C 39.0°F3.9°C 83% 0.2 mph SE0.3 kmh SE -- 30.30 in1026.1 mb 0.00 in0.0 mm 0.00 in0.0 mm 0.00 in0.0 mm
06:54 AM 44.1°F6.7°C 39.2°F4.0°C 83% 0.2 mph SE0.3 kmh SE 0.7 mph1.1 kmh 30.30 in1026.1 mb 0.00 in0.0 mm 0.00 in0.0 mm 0.00 in0.0 mm
06:57 AM 44.2°F6.8°C 39.4°F4.1°C 83% 0.2 mph SE0.3 kmh SE -- 30.29 in1025.7 mb 0.00 in0.0 mm 0.00 in0.0 mm 0.00 in0.0 mm
06:59 AM 44.2°F6.8°C 39.4°F4.1°C 83% 0.7 mph ESE1.1 kmh ESE 2.2 mph3.5 kmh 30.29 in1025.7 mb 0.00 in0.0 mm 0.00 in0.0 mm 0.00 in0.0 mm
07:01 AM 44.2°F6.8°C 39.0°F3.9°C 82% 0.9 mph ESE1.4 kmh ESE 1.8 mph2.9 kmh 30.30 in1026.1 mb 0.00 in0.0 mm 0.00 in0.0 mm 0.00 in0.0 mm
07:03 AM 44.1°F6.7°C 38.8°F3.8°C 82% 0.9 mph ESE1.4 kmh ESE 1.8 mph2.9 kmh 30.30 in1026.1 mb 0.00 in0.0 mm 0.00 in0.0 mm 0.00 in0.0 mm
07:05 AM 43.9°F6.6°C 38.7°F3.7°C 82% 1.1 mph SE1.8 kmh SE 1.6 mph2.6 kmh 30.30 in1026.1 mb 0.00 in0.0 mm 0.00 in0.0 mm 0.00 in0.0 mm
07:08 AM 43.7°F6.5°C 38.5°F3.6°C 82% 1.6 mph ESE2.6 kmh ESE 2.5 mph4.0 kmh 30.30 in1026.1 mb 0.00 in0.0 mm 0.00 in0.0 mm 0.00 in0.0 mm
07:10 AM 43.7°F6.5°C 38.5°F3.6°C 82% 1.6 mph SE2.6 kmh SE 1.8 mph2.9 kmh 30.29 in1025.7 mb 0.00 in0.0 mm 0.00 in0.0 mm 0.00 in0.0 mm
07:12 AM 43.5°F6.4°C 38.5°F3.6°C 82% 2.0 mph ESE3.2 kmh ESE 4.0 mph6.4 kmh 30.29 in1025.7 mb 0.00 in0.0 mm 0.00 in0.0 mm 0.00 in0.0 mm
07:14 AM 43.5°F6.4°C 38.5°F3.6°C 82% 2.0 mph ESE3.2 kmh ESE 3.1 mph5.0 kmh 30.29 in1025.7 mb 0.00 in0.0 mm 0.00 in0.0 mm 0.00 in0.0 mm
07:17 AM 43.5°F6.4°C 38.5°F3.6°C 82% 2.5 mph ESE4.0 kmh ESE 3.1 mph5.0 kmh 30.29 in1025.7 mb 0.00 in0.0 mm 0.00 in0.0 mm 0.00 in0.0 mm
07:19 AM 43.5°F6.4°C 38.5°F3.6°C 82% 2.2 mph SE3.5 kmh SE 2.5 mph4.0 kmh 30.29 in1025.7 mb 0.00 in0.0 mm 0.00 in0.0 mm 0.00 in0.0 mm
07:21 AM 43.3°F6.3°C 38.3°F3.5°C 82% 2.7 mph SE4.3 kmh SE 3.4 mph5.5 kmh 30.29 in1025.7 mb 0.00 in0.0 mm 0.00 in0.0 mm 0.00 in0.0 mm
07:23 AM 43.2°F6.2°C 38.1°F3.4°C 82% 2.9 mph ESE4.7 kmh ESE 3.8 mph6.1 kmh 30.30 in1026.1 mb 0.00 in0.0 mm 0.00 in0.0 mm 0.00 in0.0 mm
07:25 AM 43.0°F6.1°C 37.9°F3.3°C 82% 2.9 mph SE4.7 kmh SE 3.4 mph5.5 kmh 30.29 in1025.7 mb 0.00 in0.0 mm 0.00 in0.0 mm 0.00 in0.0 mm
07:28 AM 43.0°F6.1°C 37.9°F3.3°C 82% 2.9 mph SE4.7 kmh SE 3.4 mph5.5 kmh 30.29 in1025.7 mb 0.00 in0.0 mm 0.00 in0.0 mm 0.00 in0.0 mm
07:30 AM 43.0°F6.1°C 37.9°F3.3°C 82% 3.1 mph SE5.0 kmh SE 4.3 mph6.9 kmh 30.29 in1025.7 mb 0.00 in0.0 mm 0.00 in0.0 mm 0.00 in0.0 mm
07:32 AM 43.2°F6.2°C 38.1°F3.4°C 82% 3.1 mph ESE5.0 kmh ESE 3.8 mph6.1 kmh 30.30 in1026.1 mb 0.00 in0.0 mm 0.00 in0.0 mm 0.00 in0.0 mm
07:34 AM 43.2°F6.2°C 38.1°F3.4°C 82% 2.7 mph ESE4.3 kmh ESE 2.9 mph4.7 kmh 30.29 in1025.7 mb 0.00 in0.0 mm 0.00 in0.0 mm 0.00 in0.0 mm
07:37 AM 43.0°F6.1°C 37.9°F3.3°C 82% 2.5 mph SE4.0 kmh SE 2.5 mph4.0 kmh 30.29 in1025.7 mb 0.00 in0.0 mm 0.00 in0.0 mm 0.00 in0.0 mm
07:39 AM 43.0°F6.1°C 37.9°F3.3°C 82% 2.7 mph ESE4.3 kmh ESE 3.8 mph6.1 kmh 30.29 in1025.7 mb 0.00 in0.0 mm 0.00 in0.0 mm 0.00 in0.0 mm
07:41 AM 42.6°F5.9°C 37.6°F3.1°C 82% 3.4 mph SE5.5 kmh SE 4.9 mph7.9 kmh 30.29 in1025.7 mb 0.00 in0.0 mm 0.00 in0.0 mm 0.00 in0.0 mm
07:43 AM 42.6°F5.9°C 37.6°F3.1°C 82% 3.6 mph SE5.8 kmh SE 4.9 mph7.9 kmh 30.29 in1025.7 mb 0.00 in0.0 mm 0.00 in0.0 mm 0.00 in0.0 mm
07:45 AM 42.6°F5.9°C 37.8°F3.2°C 83% 3.1 mph ESE5.0 kmh ESE 3.1 mph5.0 kmh 30.29 in1025.7 mb 0.00 in0.0 mm 0.00 in0.0 mm 0.00 in0.0 mm
07:48 AM 42.6°F5.9°C 37.8°F3.2°C 83% 2.9 mph SE4.7 kmh SE 3.1 mph5.0 kmh 30.29 in1025.7 mb 0.00 in0.0 mm 0.00 in0.0 mm 0.00 in0.0 mm
07:50 AM 42.8°F6.0°C 37.8°F3.2°C 82% 2.7 mph SE4.3 kmh SE 3.6 mph5.8 kmh 30.30 in1026.1 mb 0.00 in0.0 mm 0.00 in0.0 mm 0.00 in0.0 mm
07:52 AM 43.0°F6.1°C 37.9°F3.3°C 82% 2.7 mph SE4.3 kmh SE 3.1 mph5.0 kmh 30.30 in1026.1 mb 0.00 in0.0 mm 0.00 in0.0 mm 0.00 in0.0 mm
07:54 AM 43.0°F6.1°C 38.1°F3.4°C 83% 2.5 mph SE4.0 kmh SE 2.7 mph4.3 kmh 30.30 in1026.1 mb 0.00 in0.0 mm 0.00 in0.0 mm 0.00 in0.0 mm
07:56 AM 43.0°F6.1°C 37.9°F3.3°C 82% 2.5 mph SE4.0 kmh SE 2.9 mph4.7 kmh 30.30 in1026.1 mb 0.00 in0.0 mm 0.00 in0.0 mm 0.00 in0.0 mm
07:58 AM 43.2°F6.2°C 38.3°F3.5°C 83% 2.2 mph ESE3.5 kmh ESE 2.5 mph4.0 kmh 30.30 in1026.1 mb 0.00 in0.0 mm 0.00 in0.0 mm 0.00 in0.0 mm
08:01 AM 43.3°F6.3°C 38.5°F3.6°C 83% 2.2 mph SE3.5 kmh SE 2.7 mph4.3 kmh 30.29 in1025.7 mb 0.00 in0.0 mm 0.00 in0.0 mm 0.00 in0.0 mm
08:03 AM 43.3°F6.3°C 38.3°F3.5°C 82% 3.1 mph SE5.0 kmh SE 4.5 mph7.2 kmh 30.29 in1025.7 mb 0.00 in0.0 mm 0.00 in0.0 mm 0.00 in0.0 mm
08:05 AM 43.3°F6.3°C 38.3°F3.5°C 82% 3.1 mph SE5.0 kmh SE 3.6 mph5.8 kmh 30.29 in1025.7 mb 0.00 in0.0 mm 0.00 in0.0 mm 0.00 in0.0 mm
08:07 AM 43.2°F6.2°C 38.1°F3.4°C 82% 2.9 mph SE4.7 kmh SE 3.8 mph6.1 kmh 30.29 in1025.7 mb 0.00 in0.0 mm 0.00 in0.0 mm 0.00 in0.0 mm
08:09 AM 43.2°F6.2°C 38.1°F3.4°C 82% 3.4 mph SE5.5 kmh SE 4.5 mph7.2 kmh 30.30 in1026.1 mb 0.00 in0.0 mm 0.00 in0.0 mm 0.00 in0.0 mm
08:12 AM 43.2°F6.2°C 38.1°F3.4°C 82% 3.4 mph SE5.5 kmh SE 3.8 mph6.1 kmh 30.30 in1026.1 mb 0.00 in0.0 mm 0.00 in0.0 mm 0.00 in0.0 mm
08:14 AM 43.2°F6.2°C 38.1°F3.4°C 82% 3.4 mph ESE5.5 kmh ESE 4.5 mph7.2 kmh 30.29 in1025.7 mb 0.00 in0.0 mm 0.00 in0.0 mm 0.00 in0.0 mm
08:16 AM 43.0°F6.1°C 37.9°F3.3°C 82% 3.6 mph SE5.8 kmh SE 4.3 mph6.9 kmh 30.29 in1025.7 mb 0.00 in0.0 mm 0.00 in0.0 mm 0.00 in0.0 mm
08:18 AM 43.0°F6.1°C 37.9°F3.3°C 82% 3.8 mph SE6.1 kmh SE 5.6 mph9.0 kmh 30.29 in1025.7 mb 0.00 in0.0 mm 0.00 in0.0 mm 0.00 in0.0 mm
08:21 AM 43.0°F6.1°C 37.9°F3.3°C 82% 3.4 mph SE5.5 kmh SE 4.0 mph6.4 kmh 30.30 in1026.1 mb 0.00 in0.0 mm 0.00 in0.0 mm 0.00 in0.0 mm
08:23 AM 43.2°F6.2°C 38.1°F3.4°C 82% 3.1 mph ESE5.0 kmh ESE 3.6 mph5.8 kmh 30.30 in1026.1 mb 0.00 in0.0 mm 0.00 in0.0 mm 0.00 in0.0 mm
08:25 AM 43.0°F6.1°C 37.9°F3.3°C 82% 3.4 mph ESE5.5 kmh ESE 3.6 mph5.8 kmh 30.30 in1026.1 mb 0.00 in0.0 mm 0.00 in0.0 mm 0.00 in0.0 mm
08:27 AM 43.0°F6.1°C 37.9°F3.3°C 82% 3.4 mph SE5.5 kmh SE 3.8 mph6.1 kmh 30.29 in1025.7 mb 0.00 in0.0 mm 0.00 in0.0 mm 0.00 in0.0 mm
08:29 AM 42.8°F6.0°C 37.8°F3.2°C 82% 3.4 mph SE5.5 kmh SE 3.8 mph6.1 kmh 30.29 in1025.7 mb 0.00 in0.0 mm 0.00 in0.0 mm 0.00 in0.0 mm
08:32 AM 43.0°F6.1°C 37.9°F3.3°C 82% 3.1 mph SE5.0 kmh SE 3.8 mph6.1 kmh 30.29 in1025.7 mb 0.00 in0.0 mm 0.00 in0.0 mm 0.00 in0.0 mm
08:34 AM 43.0°F6.1°C 37.9°F3.3°C 82% 3.1 mph SE5.0 kmh SE 3.1 mph5.0 kmh 30.29 in1025.7 mb 0.00 in0.0 mm 0.00 in0.0 mm 0.00 in0.0 mm
08:36 AM 43.0°F6.1°C 37.9°F3.3°C 82% 3.4 mph SE5.5 kmh SE 4.5 mph7.2 kmh 30.29 in1025.7 mb 0.00 in0.0 mm 0.00 in0.0 mm 0.00 in0.0 mm
08:38 AM 43.0°F6.1°C 37.9°F3.3°C 82% 3.6 mph SE5.8 kmh SE 4.5 mph7.2 kmh 30.30 in1026.1 mb 0.00 in0.0 mm 0.00 in0.0 mm 0.00 in0.0 mm
08:40 AM 43.3°F6.3°C 38.3°F3.5°C 82% 3.1 mph SE5.0 kmh SE 2.9 mph4.7 kmh 30.30 in1026.1 mb 0.00 in0.0 mm 0.00 in0.0 mm 0.00 in0.0 mm
08:42 AM 43.5°F6.4°C 38.5°F3.6°C 82% 2.9 mph ESE4.7 kmh ESE 3.6 mph5.8 kmh 30.30 in1026.1 mb 0.00 in0.0 mm 0.00 in0.0 mm 0.00 in0.0 mm
08:44 AM 43.5°F6.4°C 38.5°F3.6°C 82% 2.9 mph SE4.7 kmh SE 3.6 mph5.8 kmh 30.30 in1026.1 mb 0.00 in0.0 mm 0.00 in0.0 mm 0.00 in0.0 mm
08:47 AM 43.7°F6.5°C 38.5°F3.6°C 82% 3.1 mph SE5.0 kmh SE 4.0 mph6.4 kmh 30.30 in1026.1 mb 0.00 in0.0 mm 0.00 in0.0 mm 0.00 in0.0 mm
08:49 AM 43.5°F6.4°C 38.5°F3.6°C 82% 3.1 mph ESE5.0 kmh ESE 3.8 mph6.1 kmh 30.30 in1026.1 mb 0.00 in0.0 mm 0.00 in0.0 mm 0.00 in0.0 mm
08:51 AM 43.5°F6.4°C 38.1°F3.4°C 81% 3.1 mph ESE5.0 kmh ESE 3.6 mph5.8 kmh 30.30 in1026.1 mb 0.00 in0.0 mm 0.00 in0.0 mm 0.00 in0.0 mm
08:54 AM 43.5°F6.4°C 38.5°F3.6°C 82% 3.1 mph SE5.0 kmh SE 3.4 mph5.5 kmh 30.30 in1026.1 mb 0.00 in0.0 mm 0.00 in0.0 mm 0.00 in0.0 mm
08:56 AM 43.5°F6.4°C 38.5°F3.6°C 82% 3.1 mph ESE5.0 kmh ESE 3.8 mph6.1 kmh 30.30 in1026.1 mb 0.00 in0.0 mm 0.00 in0.0 mm 0.00 in0.0 mm
08:58 AM 43.5°F6.4°C 38.5°F3.6°C 82% 3.1 mph ESE5.0 kmh ESE 3.4 mph5.5 kmh 30.30 in1026.1 mb 0.00 in0.0 mm 0.00 in0.0 mm 0.00 in0.0 mm
09:00 AM 43.7°F6.5°C 38.5°F3.6°C 82% 3.4 mph ESE5.5 kmh ESE 3.8 mph6.1 kmh 30.30 in1026.1 mb 0.00 in0.0 mm 0.00 in0.0 mm 0.00 in0.0 mm
09:02 AM 44.1°F6.7°C 38.8°F3.8°C 82% 3.1 mph ESE5.0 kmh ESE 3.4 mph5.5 kmh 30.30 in1026.1 mb 0.00 in0.0 mm 0.00 in0.0 mm 0.00 in0.0 mm
09:05 AM 44.4°F6.9°C 39.2°F4.0°C 82% 2.7 mph SE4.3 kmh SE 3.4 mph5.5 kmh 30.30 in1026.1 mb 0.00 in0.0 mm 0.00 in0.0 mm 0.00 in0.0 mm
09:07 AM 44.4°F6.9°C 39.2°F4.0°C 82% 2.2 mph ESE3.5 kmh ESE 2.9 mph4.7 kmh 30.30 in1026.1 mb 0.00 in0.0 mm 0.00 in0.0 mm 0.00 in0.0 mm
09:09 AM 44.4°F6.9°C 39.2°F4.0°C 82% 2.0 mph SE3.2 kmh SE 2.7 mph4.3 kmh 30.30 in1026.1 mb 0.00 in0.0 mm 0.00 in0.0 mm 0.00 in0.0 mm
09:11 AM 44.6°F7.0°C 39.4°F4.1°C 82% 2.0 mph SE3.2 kmh SE 2.5 mph4.0 kmh 30.30 in1026.1 mb 0.00 in0.0 mm 0.00 in0.0 mm 0.00 in0.0 mm
09:13 AM 44.6°F7.0°C 39.4°F4.1°C 82% 2.0 mph SE3.2 kmh SE 2.5 mph4.0 kmh 30.30 in1026.1 mb 0.00 in0.0 mm 0.00 in0.0 mm 0.00 in0.0 mm
09:15 AM 45.0°F7.2°C 39.7°F4.3°C 82% 2.0 mph SE3.2 kmh SE 2.5 mph4.0 kmh 30.30 in1026.1 mb 0.00 in0.0 mm 0.00 in0.0 mm 0.00 in0.0 mm
09:18 AM 45.1°F7.3°C 39.7°F4.3°C 81% 1.8 mph SE2.9 kmh SE 2.2 mph3.5 kmh 30.31 in1026.4 mb 0.00 in0.0 mm 0.00 in0.0 mm 0.00 in0.0 mm
09:20 AM 45.1°F7.3°C 39.7°F4.3°C 81% 2.0 mph SE3.2 kmh SE 3.4 mph5.5 kmh 30.30 in1026.1 mb 0.00 in0.0 mm 0.00 in0.0 mm 0.00 in0.0 mm
09:22 AM 45.3°F7.4°C 39.9°F4.4°C 81% 1.8 mph SE2.9 kmh SE 2.2 mph3.5 kmh 30.31 in1026.4 mb 0.00 in0.0 mm 0.00 in0.0 mm 0.00 in0.0 mm
09:24 AM 45.3°F7.4°C 39.9°F4.4°C 81% 1.8 mph ESE2.9 kmh ESE 2.7 mph4.3 kmh 30.30 in1026.1 mb 0.00 in0.0 mm 0.00 in0.0 mm 0.00 in0.0 mm
09:27 AM 45.3°F7.4°C 39.9°F4.4°C 81% 1.6 mph ESE2.6 kmh ESE 1.8 mph2.9 kmh 30.30 in1026.1 mb 0.00 in0.0 mm 0.00 in0.0 mm 0.00 in0.0 mm
09:29 AM 45.5°F7.5°C 40.1°F4.5°C 81% 1.6 mph ESE2.6 kmh ESE 2.0 mph3.2 kmh 30.30 in1026.1 mb 0.00 in0.0 mm 0.00 in0.0 mm 0.00 in0.0 mm
09:31 AM 45.7°F7.6°C 40.1°F4.5°C 81% 1.8 mph ESE2.9 kmh ESE 2.2 mph3.5 kmh 30.30 in1026.1 mb 0.00 in0.0 mm 0.00 in0.0 mm 0.00 in0.0 mm
09:33 AM 45.7°F7.6°C 40.1°F4.5°C 81% 1.6 mph ESE2.6 kmh ESE 1.6 mph2.6 kmh 30.31 in1026.4 mb 0.00 in0.0 mm 0.00 in0.0 mm 0.00 in0.0 mm
09:35 AM 46.0°F7.8°C 40.5°F4.7°C 81% 0.9 mph SE1.4 kmh SE 0.7 mph1.1 kmh 30.30 in1026.1 mb 0.00 in0.0 mm 0.00 in0.0 mm 0.00 in0.0 mm
09:37 AM 46.0°F7.8°C 40.5°F4.7°C 81% 0.4 mph ESE0.6 kmh ESE -- 30.31 in1026.4 mb 0.00 in0.0 mm 0.00 in0.0 mm 0.00 in0.0 mm
09:40 AM 46.0°F7.8°C 40.5°F4.7°C 81% 0.2 mph ESE0.3 kmh ESE -- 30.31 in1026.4 mb 0.00 in0.0 mm 0.00 in0.0 mm 0.00 in0.0 mm
09:42 AM 46.2°F7.9°C 40.6°F4.8°C 81% 0.2 mph SE0.3 kmh SE -- 30.31 in1026.4 mb 0.00 in0.0 mm 0.00 in0.0 mm 0.00 in0.0 mm
09:44 AM 46.6°F8.1°C 40.8°F4.9°C 80% 0.2 mph SE0.3 kmh SE -- 30.31 in1026.4 mb 0.00 in0.0 mm 0.00 in0.0 mm 0.00 in0.0 mm
09:46 AM 46.6°F8.1°C 40.8°F4.9°C 80% 0.2 mph E0.3 kmh E -- 30.30 in1026.1 mb 0.00 in0.0 mm 0.00 in0.0 mm 0.00 in0.0 mm
09:48 AM 46.6°F8.1°C 40.8°F4.9°C 80% 0.2 mph E0.3 kmh E -- 30.31 in1026.4 mb 0.00 in0.0 mm 0.00 in0.0 mm 0.00 in0.0 mm
09:51 AM 46.8°F8.2°C 41.0°F5.0°C 80% 0.2 mph W0.3 kmh W -- 30.30 in1026.1 mb 0.00 in0.0 mm 0.00 in0.0 mm 0.00 in0.0 mm
09:53 AM 46.9°F8.3°C 41.2°F5.1°C 80% 0.2 mph WNW0.3 kmh WNW -- 30.30 in1026.1 mb 0.00 in0.0 mm 0.00 in0.0 mm 0.00 in0.0 mm
09:55 AM 46.9°F8.3°C 41.2°F5.1°C 80% 0.2 mph WNW0.3 kmh WNW -- 30.30 in1026.1 mb 0.00 in0.0 mm 0.00 in0.0 mm 0.00 in0.0 mm
09:57 AM 46.9°F8.3°C 41.2°F5.1°C 80% 0.2 mph 0.3 kmh 0.9 mph1.4 kmh 30.31 in1026.4 mb 0.00 in0.0 mm 0.00 in0.0 mm 0.00 in0.0 mm
10:00 AM 47.1°F8.4°C 41.4°F5.2°C 80% 0.2 mph NNW0.3 kmh NNW -- 30.31 in1026.4 mb 0.00 in0.0 mm 0.00 in0.0 mm 0.00 in0.0 mm
10:02 AM 47.1°F8.4°C 41.4°F5.2°C 80% 0.4 mph WNW0.6 kmh WNW 2.0 mph3.2 kmh 30.31 in1026.4 mb 0.00 in0.0 mm 0.00 in0.0 mm 0.00 in0.0 mm
10:04 AM 47.1°F8.4°C 41.0°F5.0°C 79% 0.4 mph WNW0.6 kmh WNW 1.6 mph2.6 kmh 30.31 in1026.4 mb 0.00 in0.0 mm 0.00 in0.0 mm 0.00 in0.0 mm
10:06 AM 47.3°F8.5°C 41.2°F5.1°C 79% 0.9 mph WNW1.4 kmh WNW 1.6 mph2.6 kmh 30.31 in1026.4 mb 0.00 in0.0 mm 0.00 in0.0 mm 0.00 in0.0 mm
10:08 AM 47.5°F8.6°C 41.4°F5.2°C 79% 0.7 mph NNW1.1 kmh NNW 1.3 mph2.1 kmh 30.31 in1026.4 mb 0.00 in0.0 mm 0.00 in0.0 mm 0.00 in0.0 mm
10:11 AM 47.3°F8.5°C 41.2°F5.1°C 79% 0.4 mph NNE0.6 kmh NNE 0.9 mph1.4 kmh 30.31 in1026.4 mb 0.00 in0.0 mm 0.00 in0.0 mm 0.00 in0.0 mm
10:13 AM 47.5°F8.6°C 41.4°F5.2°C 79% 0.9 mph WNW1.4 kmh WNW 2.0 mph3.2 kmh 30.31 in1026.4 mb 0.00 in0.0 mm 0.00 in0.0 mm 0.00 in0.0 mm
10:15 AM 47.5°F8.6°C 41.0°F5.0°C 78% 1.1 mph WSW1.8 kmh WSW 3.6 mph5.8 kmh 30.31 in1026.4 mb 0.00 in0.0 mm 0.00 in0.0 mm 0.00 in0.0 mm
10:17 AM 47.5°F8.6°C 41.0°F5.0°C 78% 1.1 mph WNW1.8 kmh WNW 3.6 mph5.8 kmh 30.31 in1026.4 mb 0.00 in0.0 mm 0.00 in0.0 mm 0.00 in0.0 mm
10:19 AM 47.3°F8.5°C 40.8°F4.9°C 78% 1.3 mph WSW2.1 kmh WSW 3.8 mph6.1 kmh 30.31 in1026.4 mb 0.00 in0.0 mm 0.00 in0.0 mm 0.00 in0.0 mm
10:21 AM 47.1°F8.4°C 40.3°F4.6°C 77% 0.9 mph WSW1.4 kmh WSW 1.3 mph2.1 kmh 30.31 in1026.4 mb 0.00 in0.0 mm 0.00 in0.0 mm 0.00 in0.0 mm
10:24 AM 47.1°F8.4°C 40.3°F4.6°C 77% 0.4 mph WSW0.6 kmh WSW -- 30.31 in1026.4 mb 0.00 in0.0 mm 0.00 in0.0 mm 0.00 in0.0 mm
10:26 AM 47.1°F8.4°C 40.3°F4.6°C 77% 0.2 mph SW0.3 kmh SW -- 30.31 in1026.4 mb 0.00 in0.0 mm 0.00 in0.0 mm 0.00 in0.0 mm
10:28 AM 47.1°F8.4°C 40.3°F4.6°C 77% 0.2 mph NNE0.3 kmh NNE -- 30.32 in1026.8 mb 0.00 in0.0 mm 0.00 in0.0 mm 0.00 in0.0 mm
10:30 AM 47.1°F8.4°C 40.3°F4.6°C 77% 0.2 mph WNW0.3 kmh WNW -- 30.31 in1026.4 mb 0.00 in0.0 mm 0.00 in0.0 mm 0.00 in0.0 mm
10:33 AM 47.1°F8.4°C 40.3°F4.6°C 77% 0.2 mph S0.3 kmh S 1.3 mph2.1 kmh 30.31 in1026.4 mb 0.00 in0.0 mm 0.00 in0.0 mm 0.00 in0.0 mm
10:35 AM 47.1°F8.4°C 40.3°F4.6°C 77% 0.2 mph ESE0.3 kmh ESE -- 30.31 in1026.4 mb 0.00 in0.0 mm 0.00 in0.0 mm 0.00 in0.0 mm
10:37 AM 47.1°F8.4°C 40.3°F4.6°C 77% 0.4 mph WNW0.6 kmh WNW 1.6 mph2.6 kmh 30.30 in1026.1 mb 0.00 in0.0 mm 0.00 in0.0 mm 0.00 in0.0 mm
10:39 AM 47.1°F8.4°C 40.3°F4.6°C 77% 0.2 mph 0.3 kmh -- 30.30 in1026.1 mb 0.00 in0.0 mm 0.00 in0.0 mm 0.00 in0.0 mm
10:41 AM 47.1°F8.4°C 40.3°F4.6°C 77% 0.2 mph 0.3 kmh -- 30.31 in1026.4 mb 0.00 in0.0 mm 0.00 in0.0 mm 0.00 in0.0 mm
10:43 AM 46.9°F8.3°C 40.1°F4.5°C 77% 0.2 mph SW0.3 kmh SW 0.9 mph1.4 kmh 30.30 in1026.1 mb 0.00 in0.0 mm 0.00 in0.0 mm 0.00 in0.0 mm
10:45 AM 46.9°F8.3°C 40.1°F4.5°C 77% 0.2 mph NW0.3 kmh NW -- 30.31 in1026.4 mb 0.00 in0.0 mm 0.00 in0.0 mm 0.00 in0.0 mm
10:47 AM 46.9°F8.3°C 40.1°F4.5°C 77% 0.2 mph NNE0.3 kmh NNE 1.3 mph2.1 kmh 30.31 in1026.4 mb 0.00 in0.0 mm 0.00 in0.0 mm 0.00 in0.0 mm
10:50 AM 46.9°F8.3°C 40.1°F4.5°C 77% 0.2 mph 0.3 kmh -- 30.30 in1026.1 mb 0.00 in0.0 mm 0.00 in0.0 mm 0.00 in0.0 mm
10:52 AM 46.9°F8.3°C 40.1°F4.5°C 77% 0.2 mph WNW0.3 kmh WNW 0.9 mph1.4 kmh 30.30 in1026.1 mb 0.00 in0.0 mm 0.00 in0.0 mm 0.00 in0.0 mm
10:54 AM 46.9°F8.3°C 40.1°F4.5°C 77% 0.2 mph WNW0.3 kmh WNW -- 30.31 in1026.4 mb 0.00 in0.0 mm 0.00 in0.0 mm 0.00 in0.0 mm
10:56 AM 46.9°F8.3°C 40.1°F4.5°C 77% 0.2 mph W0.3 kmh W -- 30.31 in1026.4 mb 0.00 in0.0 mm 0.00 in0.0 mm 0.00 in0.0 mm
10:58 AM 46.9°F8.3°C 40.5°F4.7°C 78% 0.4 mph WNW0.6 kmh WNW 1.3 mph2.1 kmh 30.30 in1026.1 mb 0.00 in0.0 mm 0.00 in0.0 mm 0.00 in0.0 mm
11:01 AM 47.1°F8.4°C 40.6°F4.8°C 78% 0.4 mph WNW0.6 kmh WNW 1.6 mph2.6 kmh 30.30 in1026.1 mb 0.00 in0.0 mm 0.00 in0.0 mm 0.00 in0.0 mm
11:03 AM 47.1°F8.4°C 40.6°F4.8°C 78% 0.4 mph NW0.6 kmh NW 1.1 mph1.8 kmh 30.31 in1026.4 mb 0.00 in0.0 mm 0.00 in0.0 mm 0.00 in0.0 mm
11:05 AM 47.5°F8.6°C 41.0°F5.0°C 78% 0.4 mph NW0.6 kmh NW 0.9 mph1.4 kmh 30.31 in1026.4 mb 0.00 in0.0 mm 0.00 in0.0 mm 0.00 in0.0 mm
11:07 AM 47.7°F8.7°C 41.2°F5.1°C 78% 0.9 mph NW1.4 kmh NW 2.2 mph3.5 kmh 30.30 in1026.1 mb 0.00 in0.0 mm 0.00 in0.0 mm 0.00 in0.0 mm
11:09 AM 47.8°F8.8°C 41.4°F5.2°C 78% 0.7 mph NW1.1 kmh NW 1.3 mph2.1 kmh 30.30 in1026.1 mb 0.00 in0.0 mm 0.00 in0.0 mm 0.00 in0.0 mm
11:11 AM 48.0°F8.9°C 41.5°F5.3°C 78% 0.7 mph WNW1.1 kmh WNW 1.6 mph2.6 kmh 30.30 in1026.1 mb 0.00 in0.0 mm 0.00 in0.0 mm 0.00 in0.0 mm
11:13 AM 48.4°F9.1°C 41.5°F5.3°C 77% 0.9 mph W1.4 kmh W 1.8 mph2.9 kmh 30.31 in1026.4 mb 0.00 in0.0 mm 0.00 in0.0 mm 0.00 in0.0 mm
11:16 AM 48.4°F9.1°C 41.5°F5.3°C 77% 1.1 mph WNW1.8 kmh WNW 3.1 mph5.0 kmh 30.30 in1026.1 mb 0.00 in0.0 mm 0.00 in0.0 mm 0.00 in0.0 mm
11:18 AM 48.4°F9.1°C 41.5°F5.3°C 77% 0.9 mph NNW1.4 kmh NNW 3.1 mph5.0 kmh 30.30 in1026.1 mb 0.00 in0.0 mm 0.00 in0.0 mm 0.00 in0.0 mm
11:20 AM 48.6°F9.2°C 41.7°F5.4°C 77% 0.7 mph 1.1 kmh 1.3 mph2.1 kmh 30.30 in1026.1 mb 0.00 in0.0 mm 0.00 in0.0 mm 0.00 in0.0 mm
11:22 AM 48.7°F9.3°C 41.9°F5.5°C 77% 0.9 mph W1.4 kmh W 2.2 mph3.5 kmh 30.30 in1026.1 mb 0.00 in0.0 mm 0.00 in0.0 mm 0.00 in0.0 mm
11:24 AM 48.7°F9.3°C 41.9°F5.5°C 77% 1.1 mph WNW1.8 kmh WNW 2.2 mph3.5 kmh 30.30 in1026.1 mb 0.00 in0.0 mm 0.00 in0.0 mm 0.00 in0.0 mm
11:26 AM 48.7°F9.3°C 41.5°F5.3°C 76% 0.7 mph NE1.1 kmh NE 1.1 mph1.8 kmh 30.30 in1026.1 mb 0.00 in0.0 mm 0.00 in0.0 mm 0.00 in0.0 mm
11:28 AM 48.7°F9.3°C 41.5°F5.3°C 76% 0.7 mph NW1.1 kmh NW 1.3 mph2.1 kmh 30.30 in1026.1 mb 0.00 in0.0 mm 0.00 in0.0 mm 0.00 in0.0 mm
11:31 AM 48.7°F9.3°C 41.5°F5.3°C 76% 0.4 mph WNW0.6 kmh WNW 1.3 mph2.1 kmh 30.29 in1025.7 mb 0.00 in0.0 mm 0.00 in0.0 mm 0.00 in0.0 mm
11:33 AM 48.7°F9.3°C 41.5°F5.3°C 76% 0.4 mph 0.6 kmh 1.6 mph2.6 kmh 30.30 in1026.1 mb 0.00 in0.0 mm 0.00 in0.0 mm 0.00 in0.0 mm
11:35 AM 48.7°F9.3°C 41.2°F5.1°C 75% 1.1 mph NNW1.8 kmh NNW 2.9 mph4.7 kmh 30.29 in1025.7 mb 0.00 in0.0 mm 0.00 in0.0 mm 0.00 in0.0 mm
11:37 AM 48.7°F9.3°C 41.2°F5.1°C 75% 0.9 mph NW1.4 kmh NW 2.2 mph3.5 kmh 30.29 in1025.7 mb 0.00 in0.0 mm 0.00 in0.0 mm 0.00 in0.0 mm
11:39 AM 48.9°F9.4°C 41.4°F5.2°C 75% 0.9 mph 1.4 kmh 1.6 mph2.6 kmh 30.29 in1025.7 mb 0.00 in0.0 mm 0.00 in0.0 mm 0.00 in0.0 mm
11:41 AM 49.1°F9.5°C 41.5°F5.3°C 75% 1.1 mph NNE1.8 kmh NNE 2.5 mph4.0 kmh 30.29 in1025.7 mb 0.00 in0.0 mm 0.00 in0.0 mm 0.00 in0.0 mm
11:44 AM 49.3°F9.6°C 41.4°F5.2°C 74% 1.3 mph WNW2.1 kmh WNW 2.7 mph4.3 kmh 30.29 in1025.7 mb 0.00 in0.0 mm 0.00 in0.0 mm 0.00 in0.0 mm
11:46 AM 49.5°F9.7°C 41.5°F5.3°C 74% 1.6 mph 2.6 kmh 2.5 mph4.0 kmh 30.29 in1025.7 mb 0.00 in0.0 mm 0.00 in0.0 mm 0.00 in0.0 mm
11:48 AM 49.6°F9.8°C 41.7°F5.4°C 74% 1.6 mph NW2.6 kmh NW 3.6 mph5.8 kmh 30.29 in1025.7 mb 0.00 in0.0 mm 0.00 in0.0 mm 0.00 in0.0 mm
11:50 AM 49.6°F9.8°C 41.4°F5.2°C 73% 1.3 mph WNW2.1 kmh WNW 3.4 mph5.5 kmh 30.29 in1025.7 mb 0.00 in0.0 mm 0.00 in0.0 mm 0.00 in0.0 mm
11:52 AM 49.8°F9.9°C 41.5°F5.3°C 73% 1.3 mph NW2.1 kmh NW 3.8 mph6.1 kmh 30.29 in1025.7 mb 0.00 in0.0 mm 0.00 in0.0 mm 0.00 in0.0 mm
11:54 AM 49.8°F9.9°C 41.5°F5.3°C 73% 1.1 mph WNW1.8 kmh WNW 1.6 mph2.6 kmh 30.29 in1025.7 mb 0.00 in0.0 mm 0.00 in0.0 mm 0.00 in0.0 mm
11:57 AM 49.8°F9.9°C 41.2°F5.1°C 72% 1.8 mph WNW2.9 kmh WNW 3.8 mph6.1 kmh 30.29 in1025.7 mb 0.00 in0.0 mm 0.00 in0.0 mm 0.00 in0.0 mm
11:59 AM 49.8°F9.9°C 41.2°F5.1°C 72% 1.1 mph WNW1.8 kmh WNW 2.5 mph4.0 kmh 30.29 in1025.7 mb 0.00 in0.0 mm 0.00 in0.0 mm 0.00 in0.0 mm
12:01 PM 49.8°F9.9°C 41.2°F5.1°C 72% 1.3 mph 2.1 kmh 2.9 mph4.7 kmh 30.28 in1025.4 mb 0.00 in0.0 mm 0.00 in0.0 mm 0.00 in0.0 mm
12:03 PM 49.8°F9.9°C 40.8°F4.9°C 71% 1.6 mph 2.6 kmh 2.9 mph4.7 kmh 30.28 in1025.4 mb 0.00 in0.0 mm 0.00 in0.0 mm 0.00 in0.0 mm
12:05 PM 49.6°F9.8°C 40.6°F4.8°C 71% 2.0 mph NNW3.2 kmh NNW 3.1 mph5.0 kmh 30.28 in1025.4 mb 0.00 in0.0 mm 0.00 in0.0 mm 0.00 in0.0 mm
12:08 PM 49.6°F9.8°C 40.6°F4.8°C 71% 2.2 mph WNW3.5 kmh WNW 5.8 mph9.3 kmh 30.28 in1025.4 mb 0.00 in0.0 mm 0.00 in0.0 mm 0.00 in0.0 mm
12:10 PM 49.6°F9.8°C 41.0°F5.0°C 72% 1.8 mph W2.9 kmh W 2.0 mph3.2 kmh 30.28 in1025.4 mb 0.00 in0.0 mm 0.00 in0.0 mm 0.00 in0.0 mm
12:12 PM 49.6°F9.8°C 41.0°F5.0°C 72% 2.0 mph WSW3.2 kmh WSW 4.9 mph7.9 kmh 30.28 in1025.4 mb 0.00 in0.0 mm 0.00 in0.0 mm 0.00 in0.0 mm
12:14 PM 49.8°F9.9°C 41.2°F5.1°C 72% 1.6 mph WSW2.6 kmh WSW 2.2 mph3.5 kmh 30.28 in1025.4 mb 0.00 in0.0 mm 0.00 in0.0 mm 0.00 in0.0 mm
12:16 PM 49.8°F9.9°C 41.2°F5.1°C 72% 1.3 mph NW2.1 kmh NW 2.0 mph3.2 kmh 30.27 in1025.1 mb 0.00 in0.0 mm 0.00 in0.0 mm 0.00 in0.0 mm
12:18 PM 49.8°F9.9°C 41.2°F5.1°C 72% 1.1 mph NNE1.8 kmh NNE 2.5 mph4.0 kmh 30.27 in1025.1 mb 0.00 in0.0 mm 0.00 in0.0 mm 0.00 in0.0 mm
12:20 PM 50.2°F10.1°C 41.5°F5.3°C 72% 2.0 mph 3.2 kmh 9.6 mph15.4 kmh 30.27 in1025.1 mb 0.00 in0.0 mm 0.00 in0.0 mm 0.00 in0.0 mm
12:22 PM 49.8°F9.9°C 40.8°F4.9°C 71% 2.0 mph 3.2 kmh 3.8 mph6.1 kmh 30.27 in1025.1 mb 0.00 in0.0 mm 0.00 in0.0 mm 0.00 in0.0 mm
12:25 PM 49.8°F9.9°C 40.8°F4.9°C 71% 1.8 mph NNW2.9 kmh NNW 3.4 mph5.5 kmh 30.27 in1025.1 mb 0.00 in0.0 mm 0.00 in0.0 mm 0.00 in0.0 mm
12:27 PM 49.8°F9.9°C 41.2°F5.1°C 72% 1.8 mph NNW2.9 kmh NNW 4.0 mph6.4 kmh 30.27 in1025.1 mb 0.00 in0.0 mm 0.00 in0.0 mm 0.00 in0.0 mm
12:29 PM 49.8°F9.9°C 41.2°F5.1°C 72% 1.3 mph NNW2.1 kmh NNW 3.8 mph6.1 kmh 30.28 in1025.4 mb 0.00 in0.0 mm 0.00 in0.0 mm 0.00 in0.0 mm
12:31 PM 50.0°F10.0°C 41.4°F5.2°C 72% 1.1 mph WNW1.8 kmh WNW 2.9 mph4.7 kmh 30.27 in1025.1 mb 0.00 in0.0 mm 0.00 in0.0 mm 0.00 in0.0 mm
12:33 PM 50.2°F10.1°C 41.5°F5.3°C 72% 1.1 mph WNW1.8 kmh WNW 3.6 mph5.8 kmh 30.27 in1025.1 mb 0.00 in0.0 mm 0.00 in0.0 mm 0.00 in0.0 mm
12:35 PM 50.2°F10.1°C 41.2°F5.1°C 71% 1.8 mph NW2.9 kmh NW 4.5 mph7.2 kmh 30.27 in1025.1 mb 0.00 in0.0 mm 0.00 in0.0 mm 0.00 in0.0 mm
12:38 PM 50.4°F10.2°C 41.7°F5.4°C 72% 1.1 mph NNW1.8 kmh NNW 0.7 mph1.1 kmh 30.27 in1025.1 mb 0.00 in0.0 mm 0.00 in0.0 mm 0.00 in0.0 mm
12:40 PM 50.4°F10.2°C 41.7°F5.4°C 72% 0.9 mph NNE1.4 kmh NNE 2.5 mph4.0 kmh 30.27 in1025.1 mb 0.00 in0.0 mm 0.00 in0.0 mm 0.00 in0.0 mm
12:42 PM 50.4°F10.2°C 41.4°F5.2°C 71% 2.2 mph NNW3.5 kmh NNW 9.6 mph15.4 kmh 30.27 in1025.1 mb 0.00 in0.0 mm 0.00 in0.0 mm 0.00 in0.0 mm
12:44 PM 50.4°F10.2°C 41.4°F5.2°C 71% 2.5 mph W4.0 kmh W 4.9 mph7.9 kmh 30.27 in1025.1 mb 0.00 in0.0 mm 0.00 in0.0 mm 0.00 in0.0 mm
12:47 PM 50.4°F10.2°C 41.4°F5.2°C 71% 2.0 mph NNE3.2 kmh NNE 3.4 mph5.5 kmh 30.27 in1025.1 mb 0.00 in0.0 mm 0.00 in0.0 mm 0.00 in0.0 mm
12:49 PM 50.5°F10.3°C 41.5°F5.3°C 71% 1.3 mph WNW2.1 kmh WNW 2.0 mph3.2 kmh 30.27 in1025.1 mb 0.00 in0.0 mm 0.00 in0.0 mm 0.00 in0.0 mm
12:51 PM 50.5°F10.3°C 41.5°F5.3°C 71% 2.0 mph NNE3.2 kmh NNE 3.6 mph5.8 kmh 30.27 in1025.1 mb 0.00 in0.0 mm 0.00 in0.0 mm 0.00 in0.0 mm
12:54 PM 50.5°F10.3°C 41.2°F5.1°C 70% 2.0 mph NNW3.2 kmh NNW 3.8 mph6.1 kmh 30.27 in1025.1 mb 0.00 in0.0 mm 0.00 in0.0 mm 0.00 in0.0 mm
12:56 PM 50.7°F10.4°C 41.4°F5.2°C 70% 1.8 mph NNW2.9 kmh NNW 3.6 mph5.8 kmh 30.26 in1024.7 mb 0.00 in0.0 mm 0.00 in0.0 mm 0.00 in0.0 mm
12:58 PM 50.7°F10.4°C 41.4°F5.2°C 70% 1.3 mph NNW2.1 kmh NNW 2.7 mph4.3 kmh 30.27 in1025.1 mb 0.00 in0.0 mm 0.00 in0.0 mm 0.00 in0.0 mm
01:00 PM 50.9°F10.5°C 41.5°F5.3°C 70% 1.1 mph 1.8 kmh 1.8 mph2.9 kmh 30.27 in1025.1 mb 0.00 in0.0 mm 0.00 in0.0 mm 0.00 in0.0 mm
01:03 PM 51.1°F10.6°C 41.7°F5.4°C 70% 1.3 mph WNW2.1 kmh WNW 4.3 mph6.9 kmh 30.26 in1024.7 mb 0.00 in0.0 mm 0.00 in0.0 mm 0.00 in0.0 mm
01:05 PM 51.3°F10.7°C 41.9°F5.5°C 70% 1.6 mph WNW2.6 kmh WNW 2.7 mph4.3 kmh 30.26 in1024.7 mb 0.00 in0.0 mm 0.00 in0.0 mm 0.00 in0.0 mm
01:07 PM 51.4°F10.8°C 41.9°F5.5°C 70% 1.1 mph 1.8 kmh 3.1 mph5.0 kmh 30.26 in1024.7 mb 0.00 in0.0 mm 0.00 in0.0 mm 0.00 in0.0 mm
01:09 PM 51.6°F10.9°C 42.1°F5.6°C 70% 1.1 mph 1.8 kmh 1.6 mph2.6 kmh 30.26 in1024.7 mb 0.00 in0.0 mm 0.00 in0.0 mm 0.00 in0.0 mm
01:11 PM 51.6°F10.9°C 42.1°F5.6°C 70% 2.2 mph NNW3.5 kmh NNW 6.5 mph10.5 kmh 30.26 in1024.7 mb 0.00 in0.0 mm 0.00 in0.0 mm 0.00 in0.0 mm
01:14 PM 51.6°F10.9°C 41.7°F5.4°C 69% 1.8 mph W2.9 kmh W 2.5 mph4.0 kmh 30.26 in1024.7 mb 0.00 in0.0 mm 0.00 in0.0 mm 0.00 in0.0 mm
01:16 PM 51.8°F11.0°C 41.9°F5.5°C 69% 2.0 mph NNW3.2 kmh NNW 5.4 mph8.7 kmh 30.26 in1024.7 mb 0.00 in0.0 mm 0.00 in0.0 mm 0.00 in0.0 mm
01:18 PM 51.6°F10.9°C 41.4°F5.2°C 68% 2.5 mph WNW4.0 kmh WNW 6.5 mph10.5 kmh 30.25 in1024.4 mb 0.00 in0.0 mm 0.00 in0.0 mm 0.00 in0.0 mm
01:20 PM 51.4°F10.8°C 40.8°F4.9°C 67% 3.1 mph W5.0 kmh W 8.5 mph13.7 kmh 30.26 in1024.7 mb 0.00 in0.0 mm 0.00 in0.0 mm 0.00 in0.0 mm
01:23 PM 51.4°F10.8°C 41.2°F5.1°C 68% 2.7 mph WSW4.3 kmh WSW 4.7 mph7.6 kmh 30.26 in1024.7 mb 0.00 in0.0 mm 0.00 in0.0 mm 0.00 in0.0 mm
01:25 PM 51.3°F10.7°C 40.6°F4.8°C 67% 2.9 mph NNE4.7 kmh NNE 6.5 mph10.5 kmh 30.25 in1024.4 mb 0.00 in0.0 mm 0.00 in0.0 mm 0.00 in0.0 mm
01:27 PM 51.1°F10.6°C 40.8°F4.9°C 68% 1.8 mph NNW2.9 kmh NNW 1.8 mph2.9 kmh 30.25 in1024.4 mb 0.00 in0.0 mm 0.00 in0.0 mm 0.00 in0.0 mm
01:29 PM 51.3°F10.7°C 41.0°F5.0°C 68% 2.0 mph WNW3.2 kmh WNW 3.4 mph5.5 kmh 30.25 in1024.4 mb 0.00 in0.0 mm 0.00 in0.0 mm 0.00 in0.0 mm
01:31 PM 50.9°F10.5°C 40.6°F4.8°C 68% 2.0 mph NNE3.2 kmh NNE 3.8 mph6.1 kmh 30.25 in1024.4 mb 0.00 in0.0 mm 0.00 in0.0 mm 0.00 in0.0 mm
01:33 PM 50.9°F10.5°C 40.6°F4.8°C 68% 1.6 mph ESE2.6 kmh ESE 2.2 mph3.5 kmh 30.25 in1024.4 mb 0.00 in0.0 mm 0.00 in0.0 mm 0.00 in0.0 mm
01:35 PM 51.1°F10.6°C 41.2°F5.1°C 69% 1.8 mph W2.9 kmh W 4.3 mph6.9 kmh 30.25 in1024.4 mb 0.00 in0.0 mm 0.00 in0.0 mm 0.00 in0.0 mm
01:37 PM 51.1°F10.6°C 41.2°F5.1°C 69% 1.6 mph W2.6 kmh W 3.1 mph5.0 kmh 30.25 in1024.4 mb 0.00 in0.0 mm 0.00 in0.0 mm 0.00 in0.0 mm
01:40 PM 50.9°F10.5°C 41.2°F5.1°C 69% 2.2 mph W3.5 kmh W 3.8 mph6.1 kmh 30.25 in1024.4 mb 0.00 in0.0 mm 0.00 in0.0 mm 0.00 in0.0 mm
01:42 PM 51.1°F10.6°C 41.2°F5.1°C 69% 2.5 mph NW4.0 kmh NW 5.8 mph9.3 kmh 30.24 in1024.0 mb 0.00 in0.0 mm 0.00 in0.0 mm 0.00 in0.0 mm
01:44 PM 51.1°F10.6°C 41.2°F5.1°C 69% 2.0 mph NNW3.2 kmh NNW 4.0 mph6.4 kmh 30.24 in1024.0 mb 0.00 in0.0 mm 0.00 in0.0 mm 0.00 in0.0 mm
01:46 PM 51.1°F10.6°C 41.2°F5.1°C 69% 1.3 mph 2.1 kmh 1.8 mph2.9 kmh 30.24 in1024.0 mb 0.00 in0.0 mm 0.00 in0.0 mm 0.00 in0.0 mm
01:49 PM 51.3°F10.7°C 41.4°F5.2°C 69% 1.6 mph NNW2.6 kmh NNW 3.4 mph5.5 kmh 30.24 in1024.0 mb 0.00 in0.0 mm 0.00 in0.0 mm 0.00 in0.0 mm
01:51 PM 51.4°F10.8°C 41.5°F5.3°C 69% 1.6 mph 2.6 kmh 2.5 mph4.0 kmh 30.24 in1024.0 mb 0.00 in0.0 mm 0.00 in0.0 mm 0.00 in0.0 mm
01:53 PM 51.4°F10.8°C 41.5°F5.3°C 69% 1.3 mph 2.1 kmh 3.1 mph5.0 kmh 30.25 in1024.4 mb 0.00 in0.0 mm 0.00 in0.0 mm 0.00 in0.0 mm
01:55 PM 51.4°F10.8°C 41.5°F5.3°C 69% 1.1 mph NNW1.8 kmh NNW 2.5 mph4.0 kmh 30.25 in1024.4 mb 0.00 in0.0 mm 0.00 in0.0 mm 0.00 in0.0 mm
01:57 PM 51.4°F10.8°C 41.5°F5.3°C 69% 1.3 mph NNW2.1 kmh NNW 3.1 mph5.0 kmh 30.25 in1024.4 mb 0.00 in0.0 mm 0.00 in0.0 mm 0.00 in0.0 mm
01:59 PM 51.4°F10.8°C 41.5°F5.3°C 69% 1.1 mph WNW1.8 kmh WNW 2.5 mph4.0 kmh 30.25 in1024.4 mb 0.00 in0.0 mm 0.00 in0.0 mm 0.00 in0.0 mm
02:01 PM 51.4°F10.8°C 41.2°F5.1°C 68% 1.3 mph NNW2.1 kmh NNW 3.1 mph5.0 kmh 30.25 in1024.4 mb 0.00 in0.0 mm 0.00 in0.0 mm 0.00 in0.0 mm
02:03 PM 51.6°F10.9°C 41.4°F5.2°C 68% 1.1 mph W1.8 kmh W 2.2 mph3.5 kmh 30.25 in1024.4 mb 0.00 in0.0 mm 0.00 in0.0 mm 0.00 in0.0 mm
02:05 PM 51.6°F10.9°C 41.4°F5.2°C 68% 2.0 mph NNW3.2 kmh NNW 4.7 mph7.6 kmh 30.25 in1024.4 mb 0.00 in0.0 mm 0.00 in0.0 mm 0.00 in0.0 mm
02:07 PM 51.4°F10.8°C 41.2°F5.1°C 68% 1.8 mph WNW2.9 kmh WNW 4.3 mph6.9 kmh 30.24 in1024.0 mb 0.00 in0.0 mm 0.00 in0.0 mm 0.00 in0.0 mm
02:10 PM 51.4°F10.8°C 41.5°F5.3°C 69% 1.1 mph WNW1.8 kmh WNW 1.1 mph1.8 kmh 30.25 in1024.4 mb 0.00 in0.0 mm 0.00 in0.0 mm 0.00 in0.0 mm
02:12 PM 51.3°F10.7°C 41.4°F5.2°C 69% 0.7 mph NNW1.1 kmh NNW 2.0 mph3.2 kmh 30.24 in1024.0 mb 0.00 in0.0 mm 0.00 in0.0 mm 0.00 in0.0 mm
02:14 PM 51.1°F10.6°C 41.2°F5.1°C 69% 1.8 mph E2.9 kmh E 5.4 mph8.7 kmh 30.24 in1024.0 mb 0.00 in0.0 mm 0.00 in0.0 mm 0.00 in0.0 mm
02:16 PM 50.9°F10.5°C 41.2°F5.1°C 69% 1.3 mph NNW2.1 kmh NNW 6.5 mph10.5 kmh 30.24 in1024.0 mb 0.00 in0.0 mm 0.00 in0.0 mm 0.00 in0.0 mm
02:19 PM 50.9°F10.5°C 41.2°F5.1°C 69% 0.7 mph NNE1.1 kmh NNE -- 30.24 in1024.0 mb 0.00 in0.0 mm 0.00 in0.0 mm 0.00 in0.0 mm
02:21 PM 50.9°F10.5°C 41.2°F5.1°C 69% 1.1 mph 1.8 kmh 3.8 mph6.1 kmh 30.24 in1024.0 mb 0.00 in0.0 mm 0.00 in0.0 mm 0.00 in0.0 mm
02:23 PM 50.7°F10.4°C 41.0°F5.0°C 69% 2.0 mph NNE3.2 kmh NNE 4.3 mph6.9 kmh 30.24 in1024.0 mb 0.00 in0.0 mm 0.00 in0.0 mm 0.00 in0.0 mm
02:25 PM 50.7°F10.4°C 41.4°F5.2°C 70% 2.0 mph NNW3.2 kmh NNW 2.5 mph4.0 kmh 30.24 in1024.0 mb 0.00 in0.0 mm 0.00 in0.0 mm 0.00 in0.0 mm
02:28 PM 50.7°F10.4°C 41.4°F5.2°C 70% 2.0 mph 3.2 kmh 4.0 mph6.4 kmh 30.24 in1024.0 mb 0.00 in0.0 mm 0.00 in0.0 mm 0.00 in0.0 mm
02:30 PM 50.7°F10.4°C 41.4°F5.2°C 70% 1.1 mph 1.8 kmh -- 30.24 in1024.0 mb 0.00 in0.0 mm 0.00 in0.0 mm 0.00 in0.0 mm
02:32 PM 50.7°F10.4°C 41.4°F5.2°C 70% 0.7 mph NNW1.1 kmh NNW 1.6 mph2.6 kmh 30.24 in1024.0 mb 0.00 in0.0 mm 0.00 in0.0 mm 0.00 in0.0 mm
02:34 PM 50.7°F10.4°C 41.4°F5.2°C 70% 0.7 mph W1.1 kmh W 1.3 mph2.1 kmh 30.24 in1024.0 mb 0.00 in0.0 mm 0.00 in0.0 mm 0.00 in0.0 mm
02:37 PM 50.7°F10.4°C 41.4°F5.2°C 70% 0.7 mph NNW1.1 kmh NNW 2.5 mph4.0 kmh 30.24 in1024.0 mb 0.00 in0.0 mm 0.00 in0.0 mm 0.00 in0.0 mm
02:39 PM 50.7°F10.4°C 41.4°F5.2°C 70% 0.7 mph NNW1.1 kmh NNW 3.1 mph5.0 kmh 30.24 in1024.0 mb 0.00 in0.0 mm 0.00 in0.0 mm 0.00 in0.0 mm
02:41 PM 50.7°F10.4°C 41.4°F5.2°C 70% 0.7 mph SSW1.1 kmh SSW 2.2 mph3.5 kmh 30.24 in1024.0 mb 0.00 in0.0 mm 0.00 in0.0 mm 0.00 in0.0 mm
02:43 PM 50.7°F10.4°C 41.4°F5.2°C 70% 1.3 mph W2.1 kmh W 4.7 mph7.6 kmh 30.24 in1024.0 mb 0.00 in0.0 mm 0.00 in0.0 mm 0.00 in0.0 mm
02:45 PM 50.7°F10.4°C 41.4°F5.2°C 70% 1.6 mph WNW2.6 kmh WNW 4.7 mph7.6 kmh 30.24 in1024.0 mb 0.00 in0.0 mm 0.00 in0.0 mm 0.00 in0.0 mm
02:48 PM 50.7°F10.4°C 41.4°F5.2°C 70% 1.8 mph NNW2.9 kmh NNW 5.1 mph8.2 kmh 30.24 in1024.0 mb 0.00 in0.0 mm 0.00 in0.0 mm 0.00 in0.0 mm
02:50 PM 50.5°F10.3°C 41.2°F5.1°C 70% 1.8 mph NNW2.9 kmh NNW 4.7 mph7.6 kmh 30.24 in1024.0 mb 0.00 in0.0 mm 0.00 in0.0 mm 0.00 in0.0 mm
02:52 PM 50.5°F10.3°C 41.2°F5.1°C 70% 2.0 mph WNW3.2 kmh WNW 3.6 mph5.8 kmh 30.24 in1024.0 mb 0.00 in0.0 mm 0.00 in0.0 mm 0.00 in0.0 mm
02:54 PM 50.4°F10.2°C 41.0°F5.0°C 70% 1.6 mph NW2.6 kmh NW 2.5 mph4.0 kmh 30.24 in1024.0 mb 0.00 in0.0 mm 0.00 in0.0 mm 0.00 in0.0 mm
02:57 PM 50.4°F10.2°C 41.0°F5.0°C 70% 1.8 mph NNW2.9 kmh NNW 3.6 mph5.8 kmh 30.24 in1024.0 mb 0.00 in0.0 mm 0.00 in0.0 mm 0.00 in0.0 mm
02:59 PM 50.2°F10.1°C 40.8°F4.9°C 70% 2.0 mph NNW3.2 kmh NNW 4.7 mph7.6 kmh 30.24 in1024.0 mb 0.00 in0.0 mm 0.00 in0.0 mm 0.00 in0.0 mm
03:01 PM 50.2°F10.1°C 41.2°F5.1°C 71% 2.2 mph NNW3.5 kmh NNW 4.7 mph7.6 kmh 30.24 in1024.0 mb 0.00 in0.0 mm 0.00 in0.0 mm 0.00 in0.0 mm
03:03 PM 50.2°F10.1°C 41.2°F5.1°C 71% 2.2 mph NNW3.5 kmh NNW 3.1 mph5.0 kmh 30.24 in1024.0 mb 0.00 in0.0 mm 0.00 in0.0 mm 0.00 in0.0 mm
03:06 PM 50.2°F10.1°C 41.2°F5.1°C 71% 1.8 mph NNW2.9 kmh NNW 4.7 mph7.6 kmh 30.24 in1024.0 mb 0.00 in0.0 mm 0.00 in0.0 mm 0.00 in0.0 mm
03:08 PM 50.2°F10.1°C 41.2°F5.1°C 71% 1.3 mph SW2.1 kmh SW 2.9 mph4.7 kmh 30.25 in1024.4 mb 0.00 in0.0 mm 0.00 in0.0 mm 0.00 in0.0 mm
03:10 PM 50.2°F10.1°C 41.2°F5.1°C 71% 1.1 mph NNW1.8 kmh NNW 3.1 mph5.0 kmh 30.24 in1024.0 mb 0.00 in0.0 mm 0.00 in0.0 mm 0.00 in0.0 mm
03:12 PM 50.2°F10.1°C 41.2°F5.1°C 71% 0.9 mph W1.4 kmh W 2.0 mph3.2 kmh 30.24 in1024.0 mb 0.00 in0.0 mm 0.00 in0.0 mm 0.00 in0.0 mm
03:14 PM 50.2°F10.1°C 41.2°F5.1°C 71% 0.7 mph 1.1 kmh 1.6 mph2.6 kmh 30.24 in1024.0 mb 0.00 in0.0 mm 0.00 in0.0 mm 0.00 in0.0 mm
03:17 PM 50.2°F10.1°C 41.5°F5.3°C 72% 0.4 mph NW0.6 kmh NW 1.1 mph1.8 kmh 30.24 in1024.0 mb 0.00 in0.0 mm 0.00 in0.0 mm 0.00 in0.0 mm
03:19 PM 50.2°F10.1°C 41.5°F5.3°C 72% 0.2 mph NNW0.3 kmh NNW -- 30.24 in1024.0 mb 0.00 in0.0 mm 0.00 in0.0 mm 0.00 in0.0 mm
03:21 PM 50.2°F10.1°C 41.5°F5.3°C 72% 0.2 mph NNW0.3 kmh NNW -- 30.24 in1024.0 mb 0.00 in0.0 mm 0.00 in0.0 mm 0.00 in0.0 mm
03:23 PM 50.4°F10.2°C 41.7°F5.4°C 72% 0.4 mph 0.6 kmh 1.3 mph2.1 kmh 30.24 in1024.0 mb 0.00 in0.0 mm 0.00 in0.0 mm 0.00 in0.0 mm
03:25 PM 50.2°F10.1°C 41.5°F5.3°C 72% 0.4 mph NW0.6 kmh NW 1.6 mph2.6 kmh 30.24 in1024.0 mb 0.00 in0.0 mm 0.00 in0.0 mm 0.00 in0.0 mm
03:28 PM 50.2°F10.1°C 41.2°F5.1°C 71% 0.4 mph NW0.6 kmh NW 1.1 mph1.8 kmh 30.24 in1024.0 mb 0.00 in0.0 mm 0.00 in0.0 mm 0.00 in0.0 mm
03:30 PM 50.2°F10.1°C 41.2°F5.1°C 71% 0.4 mph NNW0.6 kmh NNW 1.6 mph2.6 kmh 30.24 in1024.0 mb 0.00 in0.0 mm 0.00 in0.0 mm 0.00 in0.0 mm
03:32 PM 50.2°F10.1°C 41.2°F5.1°C 71% 0.7 mph NW1.1 kmh NW 2.5 mph4.0 kmh 30.24 in1024.0 mb 0.00 in0.0 mm 0.00 in0.0 mm 0.00 in0.0 mm
03:34 PM 50.2°F10.1°C 41.2°F5.1°C 71% 0.9 mph NW1.4 kmh NW 1.8 mph2.9 kmh 30.24 in1024.0 mb 0.00 in0.0 mm 0.00 in0.0 mm 0.00 in0.0 mm
03:36 PM 50.2°F10.1°C 41.2°F5.1°C 71% 1.6 mph W2.6 kmh W 2.9 mph4.7 kmh 30.24 in1024.0 mb 0.00 in0.0 mm 0.00 in0.0 mm 0.00 in0.0 mm
03:39 PM 50.4°F10.2°C 41.4°F5.2°C 71% 2.0 mph 3.2 kmh 3.1 mph5.0 kmh 30.24 in1024.0 mb 0.00 in0.0 mm 0.00 in0.0 mm 0.00 in0.0 mm
03:41 PM 50.5°F10.3°C 41.5°F5.3°C 71% 2.0 mph NNW3.2 kmh NNW 3.6 mph5.8 kmh 30.24 in1024.0 mb 0.00 in0.0 mm 0.00 in0.0 mm 0.00 in0.0 mm
03:43 PM 50.4°F10.2°C 41.0°F5.0°C 70% 1.3 mph W2.1 kmh W 2.0 mph3.2 kmh 30.24 in1024.0 mb 0.00 in0.0 mm 0.00 in0.0 mm 0.00 in0.0 mm
03:45 PM 50.5°F10.3°C 41.2°F5.1°C 70% 1.3 mph NW2.1 kmh NW 2.0 mph3.2 kmh 30.24 in1024.0 mb 0.00 in0.0 mm 0.00 in0.0 mm 0.00 in0.0 mm
03:47 PM 50.5°F10.3°C 41.2°F5.1°C 70% 1.1 mph NNW1.8 kmh NNW 2.0 mph3.2 kmh 30.24 in1024.0 mb 0.00 in0.0 mm 0.00 in0.0 mm 0.00 in0.0 mm
03:49 PM 50.4°F10.2°C 41.0°F5.0°C 70% 1.3 mph NNW2.1 kmh NNW 3.1 mph5.0 kmh 30.24 in1024.0 mb 0.00 in0.0 mm 0.00 in0.0 mm 0.00 in0.0 mm
03:52 PM 50.4°F10.2°C 41.0°F5.0°C 70% 1.3 mph 2.1 kmh 2.9 mph4.7 kmh 30.24 in1024.0 mb 0.00 in0.0 mm 0.00 in0.0 mm 0.00 in0.0 mm
03:54 PM 50.4°F10.2°C 41.0°F5.0°C 70% 1.8 mph NNW2.9 kmh NNW 4.0 mph6.4 kmh 30.24 in1024.0 mb 0.00 in0.0 mm 0.00 in0.0 mm 0.00 in0.0 mm
03:56 PM 50.4°F10.2°C 41.0°F5.0°C 70% 1.3 mph NW2.1 kmh NW 2.2 mph3.5 kmh 30.24 in1024.0 mb 0.00 in0.0 mm 0.00 in0.0 mm 0.00 in0.0 mm
03:58 PM 50.2°F10.1°C 40.8°F4.9°C 70% 2.0 mph 3.2 kmh 3.8 mph6.1 kmh 30.24 in1024.0 mb 0.00 in0.0 mm 0.00 in0.0 mm 0.00 in0.0 mm
04:00 PM 50.2°F10.1°C 40.8°F4.9°C 70% 1.6 mph NNW2.6 kmh NNW 2.7 mph4.3 kmh 30.24 in1024.0 mb 0.00 in0.0 mm 0.00 in0.0 mm 0.00 in0.0 mm
04:03 PM 50.2°F10.1°C 41.2°F5.1°C 71% 1.8 mph 2.9 kmh 2.5 mph4.0 kmh 30.24 in1024.0 mb 0.00 in0.0 mm 0.00 in0.0 mm 0.00 in0.0 mm
04:05 PM 50.2°F10.1°C 41.2°F5.1°C 71% 1.8 mph NNW2.9 kmh NNW 3.1 mph5.0 kmh 30.24 in1024.0 mb 0.00 in0.0 mm 0.00 in0.0 mm 0.00 in0.0 mm
04:07 PM 50.2°F10.1°C 41.2°F5.1°C 71% 1.1 mph NW1.8 kmh NW 1.3 mph2.1 kmh 30.24 in1024.0 mb 0.00 in0.0 mm 0.00 in0.0 mm 0.00 in0.0 mm
04:09 PM 50.0°F10.0°C 41.0°F5.0°C 71% 0.9 mph NNW1.4 kmh NNW 2.0 mph3.2 kmh 30.24 in1024.0 mb 0.00 in0.0 mm 0.00 in0.0 mm 0.00 in0.0 mm
04:12 PM 50.2°F10.1°C 41.2°F5.1°C 71% 1.6 mph 2.6 kmh 3.6 mph5.8 kmh 30.24 in1024.0 mb 0.00 in0.0 mm 0.00 in0.0 mm 0.00 in0.0 mm
04:14 PM 49.8°F9.9°C 40.8°F4.9°C 71% 2.0 mph NNW3.2 kmh NNW 3.8 mph6.1 kmh 30.24 in1024.0 mb 0.00 in0.0 mm 0.00 in0.0 mm 0.00 in0.0 mm
04:16 PM 49.8°F9.9°C 40.8°F4.9°C 71% 2.0 mph 3.2 kmh 4.0 mph6.4 kmh 30.24 in1024.0 mb 0.00 in0.0 mm 0.00 in0.0 mm 0.00 in0.0 mm
04:18 PM 49.8°F9.9°C 40.8°F4.9°C 71% 1.6 mph NNW2.6 kmh NNW 3.4 mph5.5 kmh 30.24 in1024.0 mb 0.00 in0.0 mm 0.00 in0.0 mm 0.00 in0.0 mm
04:20 PM 49.6°F9.8°C 41.0°F5.0°C 72% 1.6 mph NNW2.6 kmh NNW 4.0 mph6.4 kmh 30.24 in1024.0 mb 0.00 in0.0 mm 0.00 in0.0 mm 0.00 in0.0 mm
04:23 PM 49.6°F9.8°C 41.0°F5.0°C 72% 2.2 mph 3.5 kmh 5.1 mph8.2 kmh 30.24 in1024.0 mb 0.00 in0.0 mm 0.00 in0.0 mm 0.00 in0.0 mm
04:25 PM 49.6°F9.8°C 41.0°F5.0°C 72% 1.3 mph NNW2.1 kmh NNW 2.0 mph3.2 kmh 30.24 in1024.0 mb 0.00 in0.0 mm 0.00 in0.0 mm 0.00 in0.0 mm
04:27 PM 49.6°F9.8°C 41.0°F5.0°C 72% 2.0 mph 3.2 kmh 3.6 mph5.8 kmh 30.24 in1024.0 mb 0.00 in0.0 mm 0.00 in0.0 mm 0.00 in0.0 mm
04:29 PM 49.3°F9.6°C 41.0°F5.0°C 73% 1.8 mph NNW2.9 kmh NNW 3.4 mph5.5 kmh 30.24 in1024.0 mb 0.00 in0.0 mm 0.00 in0.0 mm 0.00 in0.0 mm
04:31 PM 49.3°F9.6°C 41.0°F5.0°C 73% 1.8 mph 2.9 kmh 2.2 mph3.5 kmh 30.24 in1024.0 mb 0.00 in0.0 mm 0.00 in0.0 mm 0.00 in0.0 mm
04:34 PM 49.3°F9.6°C 41.0°F5.0°C 73% 1.1 mph 1.8 kmh 1.3 mph2.1 kmh 30.24 in1024.0 mb 0.00 in0.0 mm 0.00 in0.0 mm 0.00 in0.0 mm
04:36 PM 49.3°F9.6°C 41.0°F5.0°C 73% 0.7 mph NNW1.1 kmh NNW 0.7 mph1.1 kmh 30.24 in1024.0 mb 0.00 in0.0 mm 0.00 in0.0 mm 0.00 in0.0 mm
04:38 PM 49.3°F9.6°C 41.0°F5.0°C 73% 0.9 mph NNW1.4 kmh NNW 2.5 mph4.0 kmh 30.24 in1024.0 mb 0.00 in0.0 mm 0.00 in0.0 mm 0.00 in0.0 mm
04:40 PM 49.1°F9.5°C 40.8°F4.9°C 73% 0.9 mph 1.4 kmh 2.5 mph4.0 kmh 30.24 in1024.0 mb 0.00 in0.0 mm 0.00 in0.0 mm 0.00 in0.0 mm
04:42 PM 49.1°F9.5°C 40.8°F4.9°C 73% 1.3 mph 2.1 kmh 2.7 mph4.3 kmh 30.24 in1024.0 mb 0.00 in0.0 mm 0.00 in0.0 mm 0.00 in0.0 mm
04:45 PM 49.1°F9.5°C 40.8°F4.9°C 73% 1.1 mph WNW1.8 kmh WNW 1.3 mph2.1 kmh 30.24 in1024.0 mb 0.00 in0.0 mm 0.00 in0.0 mm 0.00 in0.0 mm
04:47 PM 48.9°F9.4°C 41.0°F5.0°C 74% 0.7 mph NW1.1 kmh NW 0.7 mph1.1 kmh 30.24 in1024.0 mb 0.00 in0.0 mm 0.00 in0.0 mm 0.00 in0.0 mm
04:49 PM 48.9°F9.4°C 41.0°F5.0°C 74% 0.4 mph NW0.6 kmh NW -- 30.23 in1023.7 mb 0.00 in0.0 mm 0.00 in0.0 mm 0.00 in0.0 mm
04:51 PM 48.9°F9.4°C 41.0°F5.0°C 74% 0.2 mph NW0.3 kmh NW 0.7 mph1.1 kmh 30.24 in1024.0 mb 0.00 in0.0 mm 0.00 in0.0 mm 0.00 in0.0 mm
04:53 PM 48.7°F9.3°C 40.8°F4.9°C 74% 0.2 mph NNE0.3 kmh NNE -- 30.23 in1023.7 mb 0.00 in0.0 mm 0.00 in0.0 mm 0.00 in0.0 mm
04:55 PM 48.7°F9.3°C 40.8°F4.9°C 74% 0.2 mph NW0.3 kmh NW -- 30.23 in1023.7 mb 0.00 in0.0 mm 0.00 in0.0 mm 0.00 in0.0 mm
04:58 PM 48.7°F9.3°C 40.8°F4.9°C 74% 0.4 mph NNE0.6 kmh NNE 1.6 mph2.6 kmh 30.24 in1024.0 mb 0.00 in0.0 mm 0.00 in0.0 mm 0.00 in0.0 mm
05:00 PM 48.7°F9.3°C 40.8°F4.9°C 74% 0.2 mph NW0.3 kmh NW -- 30.24 in1024.0 mb 0.00 in0.0 mm 0.00 in0.0 mm 0.00 in0.0 mm
05:02 PM 48.7°F9.3°C 41.2°F5.1°C 75% 0.4 mph 0.6 kmh 1.6 mph2.6 kmh 30.24 in1024.0 mb 0.00 in0.0 mm 0.00 in0.0 mm 0.00 in0.0 mm
05:04 PM 48.7°F9.3°C 41.2°F5.1°C 75% 0.7 mph 1.1 kmh 1.3 mph2.1 kmh 30.23 in1023.7 mb 0.00 in0.0 mm 0.00 in0.0 mm 0.00 in0.0 mm
05:06 PM 48.6°F9.2°C 41.0°F5.0°C 75% 0.7 mph NW1.1 kmh NW 1.3 mph2.1 kmh 30.23 in1023.7 mb 0.00 in0.0 mm 0.00 in0.0 mm 0.00 in0.0 mm
05:08 PM 48.6°F9.2°C 41.0°F5.0°C 75% 0.4 mph 0.6 kmh -- 30.23 in1023.7 mb 0.00 in0.0 mm 0.00 in0.0 mm 0.00 in0.0 mm
05:11 PM 48.6°F9.2°C 41.0°F5.0°C 75% 0.2 mph NW0.3 kmh NW -- 30.24 in1024.0 mb 0.00 in0.0 mm 0.00 in0.0 mm 0.00 in0.0 mm
05:13 PM 48.4°F9.1°C 40.8°F4.9°C 75% 0.2 mph NW0.3 kmh NW -- 30.24 in1024.0 mb 0.00 in0.0 mm 0.00 in0.0 mm 0.00 in0.0 mm
05:15 PM 48.4°F9.1°C 40.8°F4.9°C 75% 0.2 mph NW0.3 kmh NW -- 30.24 in1024.0 mb 0.00 in0.0 mm 0.00 in0.0 mm 0.00 in0.0 mm
05:17 PM 48.4°F9.1°C 40.8°F4.9°C 75% 0.2 mph NNW0.3 kmh NNW 0.9 mph1.4 kmh 30.24 in1024.0 mb 0.00 in0.0 mm 0.00 in0.0 mm 0.00 in0.0 mm
05:19 PM 48.4°F9.1°C 40.8°F4.9°C 75% 0.4 mph NNW0.6 kmh NNW 2.0 mph3.2 kmh 30.24 in1024.0 mb 0.00 in0.0 mm 0.00 in0.0 mm 0.00 in0.0 mm
05:22 PM 48.4°F9.1°C 40.8°F4.9°C 75% 0.2 mph NW0.3 kmh NW -- 30.24 in1024.0 mb 0.00 in0.0 mm 0.00 in0.0 mm 0.00 in0.0 mm
05:24 PM 48.4°F9.1°C 40.8°F4.9°C 75% 0.7 mph NW1.1 kmh NW 2.2 mph3.5 kmh 30.24 in1024.0 mb 0.00 in0.0 mm 0.00 in0.0 mm 0.00 in0.0 mm
05:26 PM 48.4°F9.1°C 40.8°F4.9°C 75% 0.4 mph NNW0.6 kmh NNW -- 30.24 in1024.0 mb 0.00 in0.0 mm 0.00 in0.0 mm 0.00 in0.0 mm
05:28 PM 48.4°F9.1°C 41.2°F5.1°C 76% 0.4 mph NNW0.6 kmh NNW 1.8 mph2.9 kmh 30.24 in1024.0 mb 0.00 in0.0 mm 0.00 in0.0 mm 0.00 in0.0 mm
05:30 PM 48.2°F9.0°C 41.0°F5.0°C 76% 0.4 mph NNW0.6 kmh NNW 1.1 mph1.8 kmh 30.24 in1024.0 mb 0.00 in0.0 mm 0.00 in0.0 mm 0.00 in0.0 mm
05:33 PM 48.2°F9.0°C 41.0°F5.0°C 76% 0.2 mph 0.3 kmh -- 30.24 in1024.0 mb 0.00 in0.0 mm 0.00 in0.0 mm 0.00 in0.0 mm
05:35 PM 48.2°F9.0°C 41.0°F5.0°C 76% 0.2 mph NNW0.3 kmh NNW -- 30.24 in1024.0 mb 0.00 in0.0 mm 0.00 in0.0 mm 0.00 in0.0 mm
05:37 PM 48.2°F9.0°C 41.0°F5.0°C 76% 0.2 mph W0.3 kmh W -- 30.24 in1024.0 mb 0.00 in0.0 mm 0.00 in0.0 mm 0.00 in0.0 mm
05:39 PM 48.2°F9.0°C 41.0°F5.0°C 76% 0.2 mph NW0.3 kmh NW 0.9 mph1.4 kmh 30.24 in1024.0 mb 0.00 in0.0 mm 0.00 in0.0 mm 0.00 in0.0 mm
05:41 PM 48.2°F9.0°C 41.0°F5.0°C 76% 0.2 mph WNW0.3 kmh WNW -- 30.24 in1024.0 mb 0.00 in0.0 mm 0.00 in0.0 mm 0.00 in0.0 mm
05:44 PM 48.2°F9.0°C 41.0°F5.0°C 76% 0.2 mph NNW0.3 kmh NNW 0.7 mph1.1 kmh 30.24 in1024.0 mb 0.00 in0.0 mm 0.00 in0.0 mm 0.00 in0.0 mm
05:46 PM 48.2°F9.0°C 41.0°F5.0°C 76% 0.4 mph NNW0.6 kmh NNW 1.6 mph2.6 kmh 30.24 in1024.0 mb 0.00 in0.0 mm 0.00 in0.0 mm 0.00 in0.0 mm
05:48 PM 48.0°F8.9°C 40.8°F4.9°C 76% 0.4 mph NNW0.6 kmh NNW 2.0 mph3.2 kmh 30.24 in1024.0 mb 0.00 in0.0 mm 0.00 in0.0 mm 0.00 in0.0 mm
05:50 PM 48.0°F8.9°C 41.2°F5.1°C 77% 0.4 mph NNW0.6 kmh NNW 1.6 mph2.6 kmh 30.24 in1024.0 mb 0.00 in0.0 mm 0.00 in0.0 mm 0.00 in0.0 mm
05:52 PM 48.0°F8.9°C 41.2°F5.1°C 77% 0.2 mph NNW0.3 kmh NNW -- 30.24 in1024.0 mb 0.00 in0.0 mm 0.00 in0.0 mm 0.00 in0.0 mm
05:54 PM 48.0°F8.9°C 41.2°F5.1°C 77% 0.2 mph NNW0.3 kmh NNW -- 30.24 in1024.0 mb 0.00 in0.0 mm 0.00 in0.0 mm 0.00 in0.0 mm
05:57 PM 48.0°F8.9°C 41.2°F5.1°C 77% 0.2 mph NNW0.3 kmh NNW 0.7 mph1.1 kmh 30.24 in1024.0 mb 0.00 in0.0 mm 0.00 in0.0 mm 0.00 in0.0 mm
05:59 PM 48.0°F8.9°C 41.2°F5.1°C 77% 0.2 mph NNW0.3 kmh NNW -- 30.24 in1024.0 mb 0.00 in0.0 mm 0.00 in0.0 mm 0.00 in0.0 mm
06:01 PM 48.0°F8.9°C 41.2°F5.1°C 77% 0.2 mph NNW0.3 kmh NNW -- 30.24 in1024.0 mb 0.00 in0.0 mm 0.00 in0.0 mm 0.00 in0.0 mm
06:03 PM 48.0°F8.9°C 41.2°F5.1°C 77% 0.2 mph NNW0.3 kmh NNW 0.7 mph1.1 kmh 30.24 in1024.0 mb 0.00 in0.0 mm 0.00 in0.0 mm 0.00 in0.0 mm
06:06 PM 48.0°F8.9°C 41.2°F5.1°C 77% 0.2 mph NW0.3 kmh NW -- 30.24 in1024.0 mb 0.00 in0.0 mm 0.00 in0.0 mm 0.00 in0.0 mm
06:08 PM 48.0°F8.9°C 41.2°F5.1°C 77% 0.2 mph NW0.3 kmh NW -- 30.24 in1024.0 mb 0.00 in0.0 mm 0.00 in0.0 mm 0.00 in0.0 mm
06:10 PM 48.0°F8.9°C 41.2°F5.1°C 77% 0.2 mph NW0.3 kmh NW -- 30.25 in1024.4 mb 0.00 in0.0 mm 0.00 in0.0 mm 0.00 in0.0 mm
06:12 PM 48.0°F8.9°C 41.2°F5.1°C 77% 0.2 mph NW0.3 kmh NW -- 30.24 in1024.0 mb 0.00 in0.0 mm 0.00 in0.0 mm 0.00 in0.0 mm
06:14 PM 47.8°F8.8°C 41.0°F5.0°C 77% 0.2 mph NW0.3 kmh NW -- 30.24 in1024.0 mb 0.00 in0.0 mm 0.00 in0.0 mm 0.00 in0.0 mm
06:16 PM 47.8°F8.8°C 41.0°F5.0°C 77% 0.2 mph NW0.3 kmh NW -- 30.24 in1024.0 mb 0.00 in0.0 mm 0.00 in0.0 mm 0.00 in0.0 mm
06:19 PM 47.8°F8.8°C 41.0°F5.0°C 77% 0.2 mph NW0.3 kmh NW -- 30.24 in1024.0 mb 0.00 in0.0 mm 0.00 in0.0 mm 0.00 in0.0 mm
06:21 PM 47.8°F8.8°C 41.0°F5.0°C 77% 0.2 mph NW0.3 kmh NW -- 30.24 in1024.0 mb 0.00 in0.0 mm 0.00 in0.0 mm 0.00 in0.0 mm
06:23 PM 47.8°F8.8°C 41.0°F5.0°C 77% 0.2 mph NW0.3 kmh NW -- 30.24 in1024.0 mb 0.00 in0.0 mm 0.00 in0.0 mm 0.00 in0.0 mm
06:25 PM 47.8°F8.8°C 41.0°F5.0°C 77% 0.2 mph NW0.3 kmh NW -- 30.24 in1024.0 mb 0.00 in0.0 mm 0.00 in0.0 mm 0.00 in0.0 mm
06:27 PM 47.8°F8.8°C 41.0°F5.0°C 77% 0.2 mph NW0.3 kmh NW -- 30.25 in1024.4 mb 0.00 in0.0 mm 0.00 in0.0 mm 0.00 in0.0 mm
06:29 PM 47.8°F8.8°C 41.0°F5.0°C 77% 0.2 mph NW0.3 kmh NW -- 30.24 in1024.0 mb 0.00 in0.0 mm 0.00 in0.0 mm 0.00 in0.0 mm
06:32 PM 47.7°F8.7°C 40.8°F4.9°C 77% 0.2 mph NW0.3 kmh NW -- 30.24 in1024.0 mb 0.00 in0.0 mm 0.00 in0.0 mm 0.00 in0.0 mm
06:34 PM 47.7°F8.7°C 40.8°F4.9°C 77% 0.2 mph NW0.3 kmh NW -- 30.24 in1024.0 mb 0.00 in0.0 mm 0.00 in0.0 mm 0.00 in0.0 mm
06:36 PM 47.7°F8.7°C 40.8°F4.9°C 77% 0.2 mph NW0.3 kmh NW -- 30.25 in1024.4 mb 0.00 in0.0 mm 0.00 in0.0 mm 0.00 in0.0 mm
06:38 PM 47.5°F8.6°C 40.6°F4.8°C 77% 0.2 mph NW0.3 kmh NW -- 30.25 in1024.4 mb 0.00 in0.0 mm 0.00 in0.0 mm 0.00 in0.0 mm
06:41 PM 47.5°F8.6°C 40.6°F4.8°C 77% 0.2 mph NW0.3 kmh NW -- 30.25 in1024.4 mb 0.00 in0.0 mm 0.00 in0.0 mm 0.00 in0.0 mm
06:43 PM 47.5°F8.6°C 40.6°F4.8°C 77% 0.2 mph NW0.3 kmh NW -- 30.25 in1024.4 mb 0.00 in0.0 mm 0.00 in0.0 mm 0.00 in0.0 mm
06:45 PM 47.3°F8.5°C 40.5°F4.7°C 77% 0.2 mph NW0.3 kmh NW -- 30.25 in1024.4 mb 0.00 in0.0 mm 0.00 in0.0 mm 0.00 in0.0 mm
06:47 PM 47.1°F8.4°C 40.6°F4.8°C 78% 0.2 mph NW0.3 kmh NW -- 30.25 in1024.4 mb 0.00 in0.0 mm 0.00 in0.0 mm 0.00 in0.0 mm
06:49 PM 47.1°F8.4°C 40.6°F4.8°C 78% 0.2 mph NW0.3 kmh NW -- 30.25 in1024.4 mb 0.00 in0.0 mm 0.00 in0.0 mm 0.00 in0.0 mm
06:52 PM 47.1°F8.4°C 40.6°F4.8°C 78% 0.2 mph WSW0.3 kmh WSW -- 30.25 in1024.4 mb 0.00 in0.0 mm 0.00 in0.0 mm 0.00 in0.0 mm
06:54 PM 46.9°F8.3°C 40.5°F4.7°C 78% 0.2 mph SSW0.3 kmh SSW -- 30.25 in1024.4 mb 0.00 in0.0 mm 0.00 in0.0 mm 0.00 in0.0 mm
06:56 PM 46.9°F8.3°C 40.5°F4.7°C 78% 0.2 mph SSW0.3 kmh SSW -- 30.25 in1024.4 mb 0.00 in0.0 mm 0.00 in0.0 mm 0.00 in0.0 mm
06:58 PM 46.8°F8.2°C 40.3°F4.6°C 78% 0.2 mph SSW0.3 kmh SSW -- 30.25 in1024.4 mb 0.00 in0.0 mm 0.00 in0.0 mm 0.00 in0.0 mm
07:00 PM 46.8°F8.2°C 40.3°F4.6°C 78% 0.2 mph SSW0.3 kmh SSW -- 30.25 in1024.4 mb 0.00 in0.0 mm 0.00 in0.0 mm 0.00 in0.0 mm
07:03 PM 46.8°F8.2°C 40.3°F4.6°C 78% 0.2 mph SSE0.3 kmh SSE -- 30.25 in1024.4 mb 0.00 in0.0 mm 0.00 in0.0 mm 0.00 in0.0 mm
07:05 PM 46.6°F8.1°C 40.1°F4.5°C 78% 0.2 mph SSE0.3 kmh SSE 0.7 mph1.1 kmh 30.25 in1024.4 mb 0.00 in0.0 mm 0.00 in0.0 mm 0.00 in0.0 mm
07:07 PM 46.6°F8.1°C 40.1°F4.5°C 78% 0.2 mph SSE0.3 kmh SSE 1.3 mph2.1 kmh 30.25 in1024.4 mb 0.00 in0.0 mm 0.00 in0.0 mm 0.00 in0.0 mm
07:10 PM 46.2°F7.9°C 39.7°F4.3°C 78% 0.2 mph SSE0.3 kmh SSE 0.9 mph1.4 kmh 30.25 in1024.4 mb 0.00 in0.0 mm 0.00 in0.0 mm 0.00 in0.0 mm
07:12 PM 46.2°F7.9°C 39.7°F4.3°C 78% 0.4 mph SSE0.6 kmh SSE 0.9 mph1.4 kmh 30.25 in1024.4 mb 0.00 in0.0 mm 0.00 in0.0 mm 0.00 in0.0 mm
07:14 PM 46.2°F7.9°C 39.7°F4.3°C 78% 0.4 mph S0.6 kmh S 1.1 mph1.8 kmh 30.25 in1024.4 mb 0.00 in0.0 mm 0.00 in0.0 mm 0.00 in0.0 mm
07:16 PM 46.2°F7.9°C 39.7°F4.3°C 78% 0.4 mph S0.6 kmh S 0.9 mph1.4 kmh 30.25 in1024.4 mb 0.00 in0.0 mm 0.00 in0.0 mm 0.00 in0.0 mm
07:18 PM 46.2°F7.9°C 39.7°F4.3°C 78% 0.7 mph SSE1.1 kmh SSE 1.1 mph1.8 kmh 30.25 in1024.4 mb 0.00 in0.0 mm 0.00 in0.0 mm 0.00 in0.0 mm
07:20 PM 46.0°F7.8°C 39.6°F4.2°C 78% 0.7 mph SSE1.1 kmh SSE 1.1 mph1.8 kmh 30.25 in1024.4 mb 0.00 in0.0 mm 0.00 in0.0 mm 0.00 in0.0 mm
07:23 PM 46.0°F7.8°C 39.6°F4.2°C 78% 0.4 mph SSE0.6 kmh SSE 1.3 mph2.1 kmh 30.24 in1024.0 mb 0.00 in0.0 mm 0.00 in0.0 mm 0.00 in0.0 mm
07:25 PM 45.7°F7.6°C 39.2°F4.0°C 78% 0.7 mph SSE1.1 kmh SSE 2.0 mph3.2 kmh 30.25 in1024.4 mb 0.00 in0.0 mm 0.00 in0.0 mm 0.00 in0.0 mm
07:27 PM 45.7°F7.6°C 39.2°F4.0°C 78% 0.9 mph S1.4 kmh S 1.6 mph2.6 kmh 30.25 in1024.4 mb 0.00 in0.0 mm 0.00 in0.0 mm 0.00 in0.0 mm
07:29 PM 45.7°F7.6°C 39.2°F4.0°C 78% 0.9 mph SSE1.4 kmh SSE 1.3 mph2.1 kmh 30.25 in1024.4 mb 0.00 in0.0 mm 0.00 in0.0 mm 0.00 in0.0 mm
07:32 PM 45.5°F7.5°C 39.0°F3.9°C 78% 1.1 mph S1.8 kmh S 1.6 mph2.6 kmh 30.25 in1024.4 mb 0.00 in0.0 mm 0.00 in0.0 mm 0.00 in0.0 mm
07:34 PM 45.3°F7.4°C 38.8°F3.8°C 78% 1.3 mph SSE2.1 kmh SSE 1.8 mph2.9 kmh 30.25 in1024.4 mb 0.00 in0.0 mm 0.00 in0.0 mm 0.00 in0.0 mm
07:36 PM 45.1°F7.3°C 38.7°F3.7°C 78% 1.6 mph SSE2.6 kmh SSE 2.2 mph3.5 kmh 30.25 in1024.4 mb 0.00 in0.0 mm 0.00 in0.0 mm 0.00 in0.0 mm
07:38 PM 45.0°F7.2°C 38.5°F3.6°C 78% 1.8 mph SSE2.9 kmh SSE 2.2 mph3.5 kmh 30.25 in1024.4 mb 0.00 in0.0 mm 0.00 in0.0 mm 0.00 in0.0 mm
07:40 PM 44.8°F7.1°C 38.7°F3.7°C 79% 2.2 mph SSE3.5 kmh SSE 3.1 mph5.0 kmh 30.25 in1024.4 mb 0.00 in0.0 mm 0.00 in0.0 mm 0.00 in0.0 mm
07:42 PM 44.8°F7.1°C 38.7°F3.7°C 79% 2.5 mph SSE4.0 kmh SSE 2.9 mph4.7 kmh 30.25 in1024.4 mb 0.00 in0.0 mm 0.00 in0.0 mm 0.00 in0.0 mm
07:45 PM 44.4°F6.9°C 38.3°F3.5°C 79% 2.2 mph S3.5 kmh S 2.5 mph4.0 kmh 30.25 in1024.4 mb 0.00 in0.0 mm 0.00 in0.0 mm 0.00 in0.0 mm
07:47 PM 44.2°F6.8°C 38.1°F3.4°C 79% 2.2 mph SSE3.5 kmh SSE 2.2 mph3.5 kmh 30.25 in1024.4 mb 0.00 in0.0 mm 0.00 in0.0 mm 0.00 in0.0 mm
07:49 PM 44.2°F6.8°C 38.1°F3.4°C 79% 2.0 mph SSE3.2 kmh SSE 2.2 mph3.5 kmh 30.24 in1024.0 mb 0.00 in0.0 mm 0.00 in0.0 mm 0.00 in0.0 mm
07:51 PM 44.2°F6.8°C 38.1°F3.4°C 79% 1.8 mph SSE2.9 kmh SSE 2.0 mph3.2 kmh 30.25 in1024.4 mb 0.00 in0.0 mm 0.00 in0.0 mm 0.00 in0.0 mm
07:53 PM 44.2°F6.8°C 38.1°F3.4°C 79% 1.6 mph S2.6 kmh S 2.0 mph3.2 kmh 30.25 in1024.4 mb 0.00 in0.0 mm 0.00 in0.0 mm 0.00 in0.0 mm
07:56 PM 44.2°F6.8°C 38.1°F3.4°C 79% 1.6 mph SSE2.6 kmh SSE 2.2 mph3.5 kmh 30.25 in1024.4 mb 0.00 in0.0 mm 0.00 in0.0 mm 0.00 in0.0 mm
07:58 PM 44.2°F6.8°C 38.1°F3.4°C 79% 1.8 mph SSE2.9 kmh SSE 2.5 mph4.0 kmh 30.25 in1024.4 mb 0.00 in0.0 mm 0.00 in0.0 mm 0.00 in0.0 mm
08:00 PM 44.2°F6.8°C 38.1°F3.4°C 79% 2.0 mph SSE3.2 kmh SSE 2.2 mph3.5 kmh 30.25 in1024.4 mb 0.00 in0.0 mm 0.00 in0.0 mm 0.00 in0.0 mm
08:02 PM 44.2°F6.8°C 38.1°F3.4°C 79% 1.8 mph SSE2.9 kmh SSE 2.0 mph3.2 kmh 30.25 in1024.4 mb 0.00 in0.0 mm 0.00 in0.0 mm 0.00 in0.0 mm
08:05 PM 44.1°F6.7°C 37.9°F3.3°C 79% 2.0 mph SSE3.2 kmh SSE 2.2 mph3.5 kmh 30.25 in1024.4 mb 0.00 in0.0 mm 0.00 in0.0 mm 0.00 in0.0 mm
08:07 PM 44.2°F6.8°C 38.1°F3.4°C 79% 2.2 mph SSE3.5 kmh SSE 2.5 mph4.0 kmh 30.25 in1024.4 mb 0.00 in0.0 mm 0.00 in0.0 mm 0.00 in0.0 mm
08:09 PM 44.1°F6.7°C 37.9°F3.3°C 79% 2.2 mph SSE3.5 kmh SSE 2.9 mph4.7 kmh 30.25 in1024.4 mb 0.00 in0.0 mm 0.00 in0.0 mm 0.00 in0.0 mm
08:11 PM 43.9°F6.6°C 37.8°F3.2°C 79% 2.2 mph SSE3.5 kmh SSE 2.5 mph4.0 kmh 30.25 in1024.4 mb 0.00 in0.0 mm 0.00 in0.0 mm 0.00 in0.0 mm
08:14 PM 43.9°F6.6°C 37.8°F3.2°C 79% 2.2 mph SSE3.5 kmh SSE 2.5 mph4.0 kmh 30.25 in1024.4 mb 0.00 in0.0 mm 0.00 in0.0 mm 0.00 in0.0 mm
08:16 PM 43.7°F6.5°C 37.6°F3.1°C 79% 2.2 mph SSE3.5 kmh SSE 2.5 mph4.0 kmh 30.25 in1024.4 mb 0.00 in0.0 mm 0.00 in0.0 mm 0.00 in0.0 mm
08:18 PM 43.9°F6.6°C 37.8°F3.2°C 79% 2.2 mph SSE3.5 kmh SSE 2.9 mph4.7 kmh 30.25 in1024.4 mb 0.00 in0.0 mm 0.00 in0.0 mm 0.00 in0.0 mm
08:20 PM 43.9°F6.6°C 37.8°F3.2°C 79% 2.2 mph SSE3.5 kmh SSE 2.5 mph4.0 kmh 30.25 in1024.4 mb 0.00 in0.0 mm 0.00 in0.0 mm 0.00 in0.0 mm
08:23 PM 43.7°F6.5°C 37.6°F3.1°C 79% 2.2 mph SSE3.5 kmh SSE 2.5 mph4.0 kmh 30.25 in1024.4 mb 0.00 in0.0 mm 0.00 in0.0 mm 0.00 in0.0 mm
08:25 PM 43.9°F6.6°C 37.8°F3.2°C 79% 2.0 mph SSE3.2 kmh SSE 2.2 mph3.5 kmh 30.25 in1024.4 mb 0.00 in0.0 mm 0.00 in0.0 mm 0.00 in0.0 mm
08:27 PM 43.9°F6.6°C 37.4°F3.0°C 78% 2.0 mph SSE3.2 kmh SSE 2.5 mph4.0 kmh 30.25 in1024.4 mb 0.00 in0.0 mm 0.00 in0.0 mm 0.00 in0.0 mm
08:29 PM 43.9°F6.6°C 37.4°F3.0°C 78% 2.2 mph SE3.5 kmh SE 3.1 mph5.0 kmh 30.25 in1024.4 mb 0.00 in0.0 mm 0.00 in0.0 mm 0.00 in0.0 mm
08:31 PM 43.7°F6.5°C 37.2°F2.9°C 78% 2.2 mph SSE3.5 kmh SSE 2.5 mph4.0 kmh 30.25 in1024.4 mb 0.00 in0.0 mm 0.00 in0.0 mm 0.00 in0.0 mm
08:34 PM 43.5°F6.4°C 37.0°F2.8°C 78% 2.0 mph SSE3.2 kmh SSE 2.5 mph4.0 kmh 30.25 in1024.4 mb 0.00 in0.0 mm 0.00 in0.0 mm 0.00 in0.0 mm
08:36 PM 43.7°F6.5°C 37.2°F2.9°C 78% 1.8 mph SSE2.9 kmh SSE 1.8 mph2.9 kmh 30.25 in1024.4 mb 0.00 in0.0 mm 0.00 in0.0 mm 0.00 in0.0 mm
08:38 PM 43.7°F6.5°C 37.2°F2.9°C 78% 1.3 mph SSE2.1 kmh SSE 1.6 mph2.6 kmh 30.26 in1024.7 mb 0.00 in0.0 mm 0.00 in0.0 mm 0.00 in0.0 mm
08:41 PM 43.7°F6.5°C 37.2°F2.9°C 78% 1.6 mph SSE2.6 kmh SSE 2.0 mph3.2 kmh 30.25 in1024.4 mb 0.00 in0.0 mm 0.00 in0.0 mm 0.00 in0.0 mm
08:43 PM 43.7°F6.5°C 37.2°F2.9°C 78% 1.8 mph SE2.9 kmh SE 2.7 mph4.3 kmh 30.25 in1024.4 mb 0.00 in0.0 mm 0.00 in0.0 mm 0.00 in0.0 mm
08:45 PM 43.7°F6.5°C 37.2°F2.9°C 78% 2.0 mph SSE3.2 kmh SSE 2.7 mph4.3 kmh 30.25 in1024.4 mb 0.00 in0.0 mm 0.00 in0.0 mm 0.00 in0.0 mm
08:47 PM 43.7°F6.5°C 37.2°F2.9°C 78% 1.8 mph SSE2.9 kmh SSE 2.0 mph3.2 kmh 30.25 in1024.4 mb 0.00 in0.0 mm 0.00 in0.0 mm 0.00 in0.0 mm
08:49 PM 43.7°F6.5°C 37.2°F2.9°C 78% 2.0 mph SSE3.2 kmh SSE 2.7 mph4.3 kmh 30.25 in1024.4 mb 0.00 in0.0 mm 0.00 in0.0 mm 0.00 in0.0 mm
08:52 PM 43.7°F6.5°C 37.2°F2.9°C 78% 2.5 mph SSE4.0 kmh SSE 3.8 mph6.1 kmh 30.25 in1024.4 mb 0.00 in0.0 mm 0.00 in0.0 mm 0.00 in0.0 mm
08:54 PM 43.7°F6.5°C 37.2°F2.9°C 78% 2.5 mph SSE4.0 kmh SSE 2.9 mph4.7 kmh 30.25 in1024.4 mb 0.00 in0.0 mm 0.00 in0.0 mm 0.00 in0.0 mm
08:56 PM 43.5°F6.4°C 37.0°F2.8°C 78% 2.5 mph SSE4.0 kmh SSE 2.9 mph4.7 kmh 30.25 in1024.4 mb 0.00 in0.0 mm 0.00 in0.0 mm 0.00 in0.0 mm
08:58 PM 43.5°F6.4°C 37.0°F2.8°C 78% 2.5 mph SSE4.0 kmh SSE 2.7 mph4.3 kmh 30.25 in1024.4 mb 0.00 in0.0 mm 0.00 in0.0 mm 0.00 in0.0 mm
09:01 PM 43.5°F6.4°C 37.0°F2.8°C 78% 2.0 mph SSE3.2 kmh SSE 2.0 mph3.2 kmh 30.25 in1024.4 mb 0.00 in0.0 mm 0.00 in0.0 mm 0.00 in0.0 mm
09:03 PM 43.3°F6.3°C 36.9°F2.7°C 78% 2.2 mph SSE3.5 kmh SSE 2.5 mph4.0 kmh 30.25 in1024.4 mb 0.00 in0.0 mm 0.00 in0.0 mm 0.00 in0.0 mm
09:05 PM 43.3°F6.3°C 36.9°F2.7°C 78% 2.0 mph SSE3.2 kmh SSE 2.9 mph4.7 kmh 30.25 in1024.4 mb 0.00 in0.0 mm 0.00 in0.0 mm 0.00 in0.0 mm
09:07 PM 43.3°F6.3°C 36.9°F2.7°C 78% 2.2 mph ESE3.5 kmh ESE 2.9 mph4.7 kmh 30.25 in1024.4 mb 0.00 in0.0 mm 0.00 in0.0 mm 0.00 in0.0 mm
09:09 PM 43.2°F6.2°C 36.7°F2.6°C 78% 2.0 mph SSE3.2 kmh SSE 2.5 mph4.0 kmh 30.25 in1024.4 mb 0.00 in0.0 mm 0.00 in0.0 mm 0.00 in0.0 mm
09:12 PM 43.0°F6.1°C 36.7°F2.6°C 78% 2.2 mph SE3.5 kmh SE 2.9 mph4.7 kmh 30.25 in1024.4 mb 0.00 in0.0 mm 0.00 in0.0 mm 0.00 in0.0 mm
09:14 PM 43.0°F6.1°C 36.7°F2.6°C 78% 2.2 mph SSE3.5 kmh SSE 2.5 mph4.0 kmh 30.26 in1024.7 mb 0.00 in0.0 mm 0.00 in0.0 mm 0.00 in0.0 mm
09:16 PM 42.6°F5.9°C 36.3°F2.4°C 78% 2.2 mph SE3.5 kmh SE 2.5 mph4.0 kmh 30.25 in1024.4 mb 0.00 in0.0 mm 0.00 in0.0 mm 0.00 in0.0 mm
09:18 PM 42.6°F5.9°C 36.3°F2.4°C 78% 2.2 mph SSE3.5 kmh SSE 3.1 mph5.0 kmh 30.25 in1024.4 mb 0.00 in0.0 mm 0.00 in0.0 mm 0.00 in0.0 mm
09:21 PM 42.6°F5.9°C 36.3°F2.4°C 78% 2.5 mph SSE4.0 kmh SSE 2.9 mph4.7 kmh 30.25 in1024.4 mb 0.00 in0.0 mm 0.00 in0.0 mm 0.00 in0.0 mm
09:23 PM 42.6°F5.9°C 36.3°F2.4°C 78% 2.7 mph SE4.3 kmh SE 3.6 mph5.8 kmh 30.25 in1024.4 mb 0.00 in0.0 mm 0.00 in0.0 mm 0.00 in0.0 mm
09:25 PM 42.4°F5.8°C 36.1°F2.3°C 78% 2.5 mph ESE4.0 kmh ESE 2.7 mph4.3 kmh 30.25 in1024.4 mb 0.00 in0.0 mm 0.00 in0.0 mm 0.00 in0.0 mm
09:27 PM 42.1°F5.6°C 36.0°F2.2°C 79% 2.5 mph SE4.0 kmh SE 3.6 mph5.8 kmh 30.25 in1024.4 mb 0.00 in0.0 mm 0.00 in0.0 mm 0.00 in0.0 mm
09:29 PM 42.4°F5.8°C 36.3°F2.4°C 79% 2.7 mph SSE4.3 kmh SSE 3.8 mph6.1 kmh 30.25 in1024.4 mb 0.00 in0.0 mm 0.00 in0.0 mm 0.00 in0.0 mm
09:31 PM 42.4°F5.8°C 36.3°F2.4°C 79% 2.2 mph SSE3.5 kmh SSE 2.7 mph4.3 kmh 30.25 in1024.4 mb 0.00 in0.0 mm 0.00 in0.0 mm 0.00 in0.0 mm
09:33 PM 42.4°F5.8°C 36.3°F2.4°C 79% 2.5 mph SE4.0 kmh SE 3.6 mph5.8 kmh 30.25 in1024.4 mb 0.00 in0.0 mm 0.00 in0.0 mm 0.00 in0.0 mm
09:36 PM 42.4°F5.8°C 36.3°F2.4°C 79% 2.7 mph SE4.3 kmh SE 3.6 mph5.8 kmh 30.25 in1024.4 mb 0.00 in0.0 mm 0.00 in0.0 mm 0.00 in0.0 mm
09:38 PM 42.1°F5.6°C 36.0°F2.2°C 79% 2.7 mph SE4.3 kmh SE 3.1 mph5.0 kmh 30.25 in1024.4 mb 0.00 in0.0 mm 0.00 in0.0 mm 0.00 in0.0 mm
09:40 PM 42.1°F5.6°C 36.0°F2.2°C 79% 2.7 mph SSE4.3 kmh SSE 3.1 mph5.0 kmh 30.25 in1024.4 mb 0.00 in0.0 mm 0.00 in0.0 mm 0.00 in0.0 mm
09:42 PM 42.1°F5.6°C 36.0°F2.2°C 79% 2.9 mph SE4.7 kmh SE 4.0 mph6.4 kmh 30.26 in1024.7 mb 0.00 in0.0 mm 0.00 in0.0 mm 0.00 in0.0 mm
09:44 PM 42.3°F5.7°C 36.1°F2.3°C 79% 2.9 mph SSE4.7 kmh SSE 3.4 mph5.5 kmh 30.26 in1024.7 mb 0.00 in0.0 mm 0.00 in0.0 mm 0.00 in0.0 mm
09:47 PM 42.4°F5.8°C 36.3°F2.4°C 79% 2.9 mph SE4.7 kmh SE 3.1 mph5.0 kmh 30.26 in1024.7 mb 0.00 in0.0 mm 0.00 in0.0 mm 0.00 in0.0 mm
09:49 PM 42.3°F5.7°C 36.1°F2.3°C 79% 2.7 mph SE4.3 kmh SE 3.1 mph5.0 kmh 30.26 in1024.7 mb 0.00 in0.0 mm 0.00 in0.0 mm 0.00 in0.0 mm
09:51 PM 42.1°F5.6°C 36.3°F2.4°C 80% 2.9 mph SSE4.7 kmh SSE 3.6 mph5.8 kmh 30.26 in1024.7 mb 0.00 in0.0 mm 0.00 in0.0 mm 0.00 in0.0 mm
09:53 PM 42.3°F5.7°C 36.5°F2.5°C 80% 2.9 mph SE4.7 kmh SE 3.6 mph5.8 kmh 30.26 in1024.7 mb 0.00 in0.0 mm 0.00 in0.0 mm 0.00 in0.0 mm
09:55 PM 42.3°F5.7°C 36.5°F2.5°C 80% 2.9 mph SSE4.7 kmh SSE 3.1 mph5.0 kmh 30.26 in1024.7 mb 0.00 in0.0 mm 0.00 in0.0 mm 0.00 in0.0 mm
09:57 PM 42.1°F5.6°C 36.3°F2.4°C 80% 2.9 mph SE4.7 kmh SE 3.4 mph5.5 kmh 30.26 in1024.7 mb 0.00 in0.0 mm 0.00 in0.0 mm 0.00 in0.0 mm
10:00 PM 42.1°F5.6°C 36.3°F2.4°C 80% 3.4 mph SSE5.5 kmh SSE 4.5 mph7.2 kmh 30.26 in1024.7 mb 0.00 in0.0 mm 0.00 in0.0 mm 0.00 in0.0 mm
10:02 PM 42.1°F5.6°C 36.3°F2.4°C 80% 3.4 mph SE5.5 kmh SE 4.0 mph6.4 kmh 30.26 in1024.7 mb 0.00 in0.0 mm 0.00 in0.0 mm 0.00 in0.0 mm
10:04 PM 42.1°F5.6°C 36.3°F2.4°C 80% 2.9 mph SE4.7 kmh SE 3.1 mph5.0 kmh 30.25 in1024.4 mb 0.00 in0.0 mm 0.00 in0.0 mm 0.00 in0.0 mm
10:07 PM 41.9°F5.5°C 36.1°F2.3°C 80% 3.1 mph SE5.0 kmh SE 3.4 mph5.5 kmh 30.25 in1024.4 mb 0.00 in0.0 mm 0.00 in0.0 mm 0.00 in0.0 mm
10:09 PM 41.7°F5.4°C 36.0°F2.2°C 80% 2.7 mph SSE4.3 kmh SSE 3.4 mph5.5 kmh 30.25 in1024.4 mb 0.00 in0.0 mm 0.00 in0.0 mm 0.00 in0.0 mm
10:11 PM 41.7°F5.4°C 36.0°F2.2°C 80% 2.7 mph SE4.3 kmh SE 3.1 mph5.0 kmh 30.25 in1024.4 mb 0.00 in0.0 mm 0.00 in0.0 mm 0.00 in0.0 mm
10:13 PM 41.7°F5.4°C 36.3°F2.4°C 81% 2.7 mph SE4.3 kmh SE 3.6 mph5.8 kmh 30.25 in1024.4 mb 0.00 in0.0 mm 0.00 in0.0 mm 0.00 in0.0 mm
10:15 PM 41.7°F5.4°C 36.3°F2.4°C 81% 2.7 mph SE4.3 kmh SE 4.0 mph6.4 kmh 30.25 in1024.4 mb 0.00 in0.0 mm 0.00 in0.0 mm 0.00 in0.0 mm
10:18 PM 41.9°F5.5°C 36.5°F2.5°C 81% 2.5 mph SSE4.0 kmh SSE 3.1 mph5.0 kmh 30.25 in1024.4 mb 0.00 in0.0 mm 0.00 in0.0 mm 0.00 in0.0 mm
10:20 PM 41.9°F5.5°C 36.5°F2.5°C 81% 2.7 mph SE4.3 kmh SE 3.1 mph5.0 kmh 30.25 in1024.4 mb 0.00 in0.0 mm 0.00 in0.0 mm 0.00 in0.0 mm
10:22 PM 41.9°F5.5°C 36.5°F2.5°C 81% 2.5 mph SSE4.0 kmh SSE 2.9 mph4.7 kmh 30.25 in1024.4 mb 0.00 in0.0 mm 0.00 in0.0 mm 0.00 in0.0 mm
10:24 PM 41.9°F5.5°C 36.5°F2.5°C 81% 2.5 mph SSE4.0 kmh SSE 2.9 mph4.7 kmh 30.25 in1024.4 mb 0.00 in0.0 mm 0.00 in0.0 mm 0.00 in0.0 mm
10:27 PM 41.9°F5.5°C 36.5°F2.5°C 81% 2.7 mph SSE4.3 kmh SSE 3.6 mph5.8 kmh 30.25 in1024.4 mb 0.00 in0.0 mm 0.00 in0.0 mm 0.00 in0.0 mm
10:29 PM 41.9°F5.5°C 36.5°F2.5°C 81% 2.7 mph SE4.3 kmh SE 3.4 mph5.5 kmh 30.25 in1024.4 mb 0.00 in0.0 mm 0.00 in0.0 mm 0.00 in0.0 mm
10:31 PM 41.7°F5.4°C 36.3°F2.4°C 81% 2.7 mph SE4.3 kmh SE 3.1 mph5.0 kmh 30.25 in1024.4 mb 0.00 in0.0 mm 0.00 in0.0 mm 0.00 in0.0 mm
10:33 PM 41.7°F5.4°C 36.3°F2.4°C 81% 2.7 mph SE4.3 kmh SE 3.1 mph5.0 kmh 30.25 in1024.4 mb 0.00 in0.0 mm 0.00 in0.0 mm 0.00 in0.0 mm
10:35 PM 41.7°F5.4°C 36.3°F2.4°C 81% 2.7 mph SE4.3 kmh SE 3.1 mph5.0 kmh 30.25 in1024.4 mb 0.00 in0.0 mm 0.00 in0.0 mm 0.00 in0.0 mm
10:38 PM 41.7°F5.4°C 36.3°F2.4°C 81% 3.1 mph SE5.0 kmh SE 3.8 mph6.1 kmh 30.25 in1024.4 mb 0.00 in0.0 mm 0.00 in0.0 mm 0.00 in0.0 mm
10:40 PM 41.7°F5.4°C 36.3°F2.4°C 81% 3.1 mph SE5.0 kmh SE 4.5 mph7.2 kmh 30.26 in1024.7 mb 0.00 in0.0 mm 0.00 in0.0 mm 0.00 in0.0 mm
10:42 PM 41.7°F5.4°C 36.3°F2.4°C 81% 2.7 mph SSE4.3 kmh SSE 2.9 mph4.7 kmh 30.25 in1024.4 mb 0.00 in0.0 mm 0.00 in0.0 mm 0.00 in0.0 mm
10:44 PM 41.5°F5.3°C 36.1°F2.3°C 81% 2.7 mph SE4.3 kmh SE 3.4 mph5.5 kmh 30.25 in1024.4 mb 0.00 in0.0 mm 0.00 in0.0 mm 0.00 in0.0 mm
10:46 PM 41.5°F5.3°C 36.1°F2.3°C 81% 2.9 mph SE4.7 kmh SE 3.6 mph5.8 kmh 30.25 in1024.4 mb 0.00 in0.0 mm 0.00 in0.0 mm 0.00 in0.0 mm
10:48 PM 41.5°F5.3°C 36.1°F2.3°C 81% 2.9 mph SE4.7 kmh SE 3.4 mph5.5 kmh 30.25 in1024.4 mb 0.00 in0.0 mm 0.00 in0.0 mm 0.00 in0.0 mm
10:51 PM 41.5°F5.3°C 36.1°F2.3°C 81% 2.9 mph SE4.7 kmh SE 3.6 mph5.8 kmh 30.25 in1024.4 mb 0.00 in0.0 mm 0.00 in0.0 mm 0.00 in0.0 mm
10:53 PM 41.4°F5.2°C 36.0°F2.2°C 81% 2.9 mph ESE4.7 kmh ESE 3.6 mph5.8 kmh 30.25 in1024.4 mb 0.00 in0.0 mm 0.00 in0.0 mm 0.00 in0.0 mm
10:55 PM 41.4°F5.2°C 36.0°F2.2°C 81% 2.9 mph SE4.7 kmh SE 3.4 mph5.5 kmh 30.25 in1024.4 mb 0.00 in0.0 mm 0.00 in0.0 mm 0.00 in0.0 mm
10:57 PM 41.4°F5.2°C 36.0°F2.2°C 81% 2.9 mph SE4.7 kmh SE 3.6 mph5.8 kmh 30.25 in1024.4 mb 0.00 in0.0 mm 0.00 in0.0 mm 0.00 in0.0 mm
11:00 PM 41.4°F5.2°C 36.0°F2.2°C 81% 2.9 mph ESE4.7 kmh ESE 3.1 mph5.0 kmh 30.25 in1024.4 mb 0.00 in0.0 mm 0.00 in0.0 mm 0.00 in0.0 mm
11:02 PM 41.2°F5.1°C 35.8°F2.1°C 81% 2.9 mph SE4.7 kmh SE 3.4 mph5.5 kmh 30.25 in1024.4 mb 0.00 in0.0 mm 0.00 in0.0 mm 0.00 in0.0 mm
11:04 PM 41.2°F5.1°C 35.8°F2.1°C 81% 2.9 mph SE4.7 kmh SE 3.1 mph5.0 kmh 30.25 in1024.4 mb 0.00 in0.0 mm 0.00 in0.0 mm 0.00 in0.0 mm
11:06 PM 41.2°F5.1°C 35.8°F2.1°C 81% 2.9 mph SE4.7 kmh SE 3.6 mph5.8 kmh 30.25 in1024.4 mb 0.00 in0.0 mm 0.00 in0.0 mm 0.00 in0.0 mm
11:09 PM 41.2°F5.1°C 36.1°F2.3°C 82% 2.9 mph SE4.7 kmh SE 3.6 mph5.8 kmh 30.25 in1024.4 mb 0.00 in0.0 mm 0.00 in0.0 mm 0.00 in0.0 mm
11:11 PM 41.2°F5.1°C 36.1°F2.3°C 82% 3.1 mph SE5.0 kmh SE 4.5 mph7.2 kmh 30.25 in1024.4 mb 0.00 in0.0 mm 0.00 in0.0 mm 0.00 in0.0 mm
11:13 PM 41.4°F5.2°C 36.3°F2.4°C 82% 3.1 mph SSE5.0 kmh SSE 3.6 mph5.8 kmh 30.25 in1024.4 mb 0.00 in0.0 mm 0.00 in0.0 mm 0.00 in0.0 mm
11:15 PM 41.5°F5.3°C 36.5°F2.5°C 82% 2.9 mph SSE4.7 kmh SSE 3.1 mph5.0 kmh 30.25 in1024.4 mb 0.00 in0.0 mm 0.00 in0.0 mm 0.00 in0.0 mm
11:17 PM 41.5°F5.3°C 36.5°F2.5°C 82% 2.5 mph SE4.0 kmh SE 2.5 mph4.0 kmh 30.25 in1024.4 mb 0.00 in0.0 mm 0.00 in0.0 mm 0.00 in0.0 mm
11:20 PM 41.5°F5.3°C 36.5°F2.5°C 82% 2.5 mph ESE4.0 kmh ESE 3.4 mph5.5 kmh 30.25 in1024.4 mb 0.00 in0.0 mm 0.00 in0.0 mm 0.00 in0.0 mm
11:22 PM 41.5°F5.3°C 36.5°F2.5°C 82% 2.5 mph SSE4.0 kmh SSE 2.9 mph4.7 kmh 30.25 in1024.4 mb 0.00 in0.0 mm 0.00 in0.0 mm 0.00 in0.0 mm
11:24 PM 41.7°F5.4°C 36.7°F2.6°C 82% 2.7 mph SE4.3 kmh SE 3.4 mph5.5 kmh 30.25 in1024.4 mb 0.00 in0.0 mm 0.00 in0.0 mm 0.00 in0.0 mm
11:26 PM 41.7°F5.4°C 36.7°F2.6°C 82% 2.7 mph SSE4.3 kmh SSE 3.6 mph5.8 kmh 30.25 in1024.4 mb 0.00 in0.0 mm 0.00 in0.0 mm 0.00 in0.0 mm
11:28 PM 41.7°F5.4°C 36.7°F2.6°C 82% 2.7 mph SSE4.3 kmh SSE 2.9 mph4.7 kmh 30.25 in1024.4 mb 0.00 in0.0 mm 0.00 in0.0 mm 0.00 in0.0 mm
11:30 PM 41.7°F5.4°C 36.7°F2.6°C 82% 2.9 mph SE4.7 kmh SE 4.0 mph6.4 kmh 30.25 in1024.4 mb 0.00 in0.0 mm 0.00 in0.0 mm 0.00 in0.0 mm
11:32 PM 41.7°F5.4°C 36.7°F2.6°C 82% 2.9 mph SE4.7 kmh SE 3.1 mph5.0 kmh 30.25 in1024.4 mb 0.00 in0.0 mm 0.00 in0.0 mm 0.00 in0.0 mm
11:35 PM 41.5°F5.3°C 36.5°F2.5°C 82% 2.7 mph SE4.3 kmh SE 3.1 mph5.0 kmh 30.25 in1024.4 mb 0.00 in0.0 mm 0.00 in0.0 mm 0.00 in0.0 mm
11:37 PM 41.5°F5.3°C 36.5°F2.5°C 82% 2.9 mph SE4.7 kmh SE 4.5 mph7.2 kmh 30.25 in1024.4 mb 0.00 in0.0 mm 0.00 in0.0 mm 0.00 in0.0 mm
11:39 PM 41.4°F5.2°C 36.3°F2.4°C 82% 2.9 mph SE4.7 kmh SE 4.3 mph6.9 kmh 30.25 in1024.4 mb 0.00 in0.0 mm 0.00 in0.0 mm 0.00 in0.0 mm
11:41 PM 41.2°F5.1°C 36.1°F2.3°C 82% 2.9 mph SE4.7 kmh SE 3.4 mph5.5 kmh 30.25 in1024.4 mb 0.00 in0.0 mm 0.00 in0.0 mm 0.00 in0.0 mm
11:44 PM 41.2°F5.1°C 36.1°F2.3°C 82% 3.4 mph SE5.5 kmh SE 4.5 mph7.2 kmh 30.25 in1024.4 mb 0.00 in0.0 mm 0.00 in0.0 mm 0.00 in0.0 mm
11:46 PM 41.2°F5.1°C 36.1°F2.3°C 82% 3.4 mph SE5.5 kmh SE 3.6 mph5.8 kmh 30.25 in1024.4 mb 0.00 in0.0 mm 0.00 in0.0 mm 0.00 in0.0 mm
11:48 PM 41.2°F5.1°C 36.1°F2.3°C 82% 3.4 mph SE5.5 kmh SE 3.8 mph6.1 kmh 30.25 in1024.4 mb 0.00 in0.0 mm 0.00 in0.0 mm 0.00 in0.0 mm
11:50 PM 41.4°F5.2°C 36.3°F2.4°C 82% 3.1 mph SE5.0 kmh SE 4.5 mph7.2 kmh 30.25 in1024.4 mb 0.00 in0.0 mm 0.00 in0.0 mm 0.00 in0.0 mm
11:52 PM 41.4°F5.2°C 36.3°F2.4°C 82% 3.1 mph SSE5.0 kmh SSE 3.4 mph5.5 kmh 30.25 in1024.4 mb 0.00 in0.0 mm 0.00 in0.0 mm 0.00 in0.0 mm
11:55 PM 41.4°F5.2°C 36.3°F2.4°C 82% 3.4 mph ESE5.5 kmh ESE 4.7 mph7.6 kmh 30.25 in1024.4 mb 0.00 in0.0 mm 0.00 in0.0 mm 0.00 in0.0 mm
11:57 PM 41.4°F5.2°C 36.3°F2.4°C 82% 3.4 mph SE5.5 kmh SE 4.0 mph6.4 kmh 30.25 in1024.4 mb 0.00 in0.0 mm 0.00 in0.0 mm 0.00 in0.0 mm
11:59 PM 41.4°F5.2°C 36.3°F2.4°C 82% 3.4 mph SSE5.5 kmh SSE 4.0 mph6.4 kmh 30.25 in1024.4 mb 0.00 in0.0 mm 0.00 in0.0 mm 0.00 in0.0 mm